<?xml version="1.0" encoding="UTF-8" standalone="no" ?>
<gpx xmlns="http://www.topografix.com/GPX/1/1" xmlns:xsi="http://www.w3.org/2001/XMLSchema-instance" xsi:schemaLocation="http://www.topografix.com/GPX/1/1 http://www.topografix.com/GPX/1/1/gpx.xsd" version="1.1" creator="VisuGPX - https://www.visugpx.com">
  <metadata>
    <name>Port d\'Allon</name>
    <desc><![CDATA[tour du golf de Frégate, passage à la calanque de port d\'Allon et boucle autour de la dune de sable de la Madrague]]></desc>
  </metadata>
  <trk>
    <name><![CDATA[Port d'Allon]]></name>
    <trkseg>
      <trkpt lat="43.15887" lon="5.73826">
        <ele>161.158203125</ele>
        <time>2011-03-06T09:58:11Z</time>
      </trkpt>
      <trkpt lat="43.15887" lon="5.73826">
        <ele>161.158203125</ele>
        <time>2011-03-06T09:58:13Z</time>
      </trkpt>
      <trkpt lat="43.15887" lon="5.73826">
        <ele>161.158203125</ele>
        <time>2011-03-06T09:58:38Z</time>
      </trkpt>
      <trkpt lat="43.15877" lon="5.7383">
        <ele>159.71618652344</ele>
        <time>2011-03-06T09:58:42Z</time>
      </trkpt>
      <trkpt lat="43.15866" lon="5.73834">
        <ele>157.79357910156</ele>
        <time>2011-03-06T09:58:45Z</time>
      </trkpt>
      <trkpt lat="43.15849" lon="5.73837">
        <ele>155.39025878906</ele>
        <time>2011-03-06T09:58:51Z</time>
      </trkpt>
      <trkpt lat="43.15845" lon="5.73828">
        <ele>155.39025878906</ele>
        <time>2011-03-06T09:58:56Z</time>
      </trkpt>
      <trkpt lat="43.15855" lon="5.73812">
        <ele>155.39025878906</ele>
        <time>2011-03-06T09:59:02Z</time>
      </trkpt>
      <trkpt lat="43.15877" lon="5.73775">
        <ele>151.06420898438</ele>
        <time>2011-03-06T09:59:09Z</time>
      </trkpt>
      <trkpt lat="43.15882" lon="5.73759">
        <ele>150.58361816406</ele>
        <time>2011-03-06T09:59:11Z</time>
      </trkpt>
      <trkpt lat="43.1589" lon="5.73719">
        <ele>147.21899414062</ele>
        <time>2011-03-06T09:59:15Z</time>
      </trkpt>
      <trkpt lat="43.15888" lon="5.73683">
        <ele>144.33520507812</ele>
        <time>2011-03-06T09:59:18Z</time>
      </trkpt>
      <trkpt lat="43.15884" lon="5.73647">
        <ele>142.41247558594</ele>
        <time>2011-03-06T09:59:21Z</time>
      </trkpt>
      <trkpt lat="43.15859" lon="5.73552">
        <ele>143.37365722656</ele>
        <time>2011-03-06T09:59:31Z</time>
      </trkpt>
      <trkpt lat="43.15848" lon="5.73562">
        <ele>141.93176269531</ele>
        <time>2011-03-06T09:59:37Z</time>
      </trkpt>
      <trkpt lat="43.15849" lon="5.73568">
        <ele>141.45104980469</ele>
        <time>2011-03-06T09:59:38Z</time>
      </trkpt>
      <trkpt lat="43.15851" lon="5.7358">
        <ele>140.00915527344</ele>
        <time>2011-03-06T09:59:40Z</time>
      </trkpt>
      <trkpt lat="43.1584" lon="5.73587">
        <ele>138.08654785156</ele>
        <time>2011-03-06T09:59:44Z</time>
      </trkpt>
      <trkpt lat="43.15836" lon="5.73584">
        <ele>138.08654785156</ele>
        <time>2011-03-06T09:59:45Z</time>
      </trkpt>
      <trkpt lat="43.15829" lon="5.73577">
        <ele>137.12524414062</ele>
        <time>2011-03-06T09:59:47Z</time>
      </trkpt>
      <trkpt lat="43.15814" lon="5.73567">
        <ele>135.20251464844</ele>
        <time>2011-03-06T09:59:50Z</time>
      </trkpt>
      <trkpt lat="43.15803" lon="5.73559">
        <ele>134.2412109375</ele>
        <time>2011-03-06T09:59:52Z</time>
      </trkpt>
      <trkpt lat="43.15778" lon="5.73548">
        <ele>130.87670898438</ele>
        <time>2011-03-06T09:59:57Z</time>
      </trkpt>
      <trkpt lat="43.15758" lon="5.73528">
        <ele>128.9541015625</ele>
        <time>2011-03-06T10:00:01Z</time>
      </trkpt>
      <trkpt lat="43.15744" lon="5.73512">
        <ele>128.9541015625</ele>
        <time>2011-03-06T10:00:04Z</time>
      </trkpt>
      <trkpt lat="43.15736" lon="5.73487">
        <ele>132.31860351562</ele>
        <time>2011-03-06T10:00:09Z</time>
      </trkpt>
      <trkpt lat="43.15726" lon="5.73472">
        <ele>135.20251464844</ele>
        <time>2011-03-06T10:00:16Z</time>
      </trkpt>
      <trkpt lat="43.15701" lon="5.73475">
        <ele>138.56726074219</ele>
        <time>2011-03-06T10:00:31Z</time>
      </trkpt>
      <trkpt lat="43.1569" lon="5.73477">
        <ele>139.0478515625</ele>
        <time>2011-03-06T10:00:49Z</time>
      </trkpt>
      <trkpt lat="43.15692" lon="5.7348">
        <ele>138.56726074219</ele>
        <time>2011-03-06T10:01:15Z</time>
      </trkpt>
      <trkpt lat="43.15671" lon="5.73483">
        <ele>139.52844238281</ele>
        <time>2011-03-06T10:03:02Z</time>
      </trkpt>
      <trkpt lat="43.15638" lon="5.73459">
        <ele>142.41247558594</ele>
        <time>2011-03-06T10:03:15Z</time>
      </trkpt>
      <trkpt lat="43.15615" lon="5.73443">
        <ele>143.85437011719</ele>
        <time>2011-03-06T10:03:28Z</time>
      </trkpt>
      <trkpt lat="43.15611" lon="5.73435">
        <ele>142.41247558594</ele>
        <time>2011-03-06T10:03:35Z</time>
      </trkpt>
      <trkpt lat="43.15609" lon="5.73416">
        <ele>140.97045898438</ele>
        <time>2011-03-06T10:03:39Z</time>
      </trkpt>
      <trkpt lat="43.156" lon="5.73401">
        <ele>142.41247558594</ele>
        <time>2011-03-06T10:03:43Z</time>
      </trkpt>
      <trkpt lat="43.15558" lon="5.73395">
        <ele>142.89306640625</ele>
        <time>2011-03-06T10:03:58Z</time>
      </trkpt>
      <trkpt lat="43.15519" lon="5.73402">
        <ele>138.56726074219</ele>
        <time>2011-03-06T10:04:06Z</time>
      </trkpt>
      <trkpt lat="43.15507" lon="5.73405">
        <ele>137.60583496094</ele>
        <time>2011-03-06T10:04:08Z</time>
      </trkpt>
      <trkpt lat="43.15473" lon="5.73407">
        <ele>134.72192382812</ele>
        <time>2011-03-06T10:04:13Z</time>
      </trkpt>
      <trkpt lat="43.15443" lon="5.73409">
        <ele>130.87670898438</ele>
        <time>2011-03-06T10:04:17Z</time>
      </trkpt>
      <trkpt lat="43.15421" lon="5.73412">
        <ele>131.35729980469</ele>
        <time>2011-03-06T10:04:20Z</time>
      </trkpt>
      <trkpt lat="43.15386" lon="5.7343">
        <ele>132.31860351562</ele>
        <time>2011-03-06T10:04:28Z</time>
      </trkpt>
      <trkpt lat="43.15376" lon="5.73429">
        <ele>132.31860351562</ele>
        <time>2011-03-06T10:04:32Z</time>
      </trkpt>
      <trkpt lat="43.15337" lon="5.7346">
        <ele>134.2412109375</ele>
        <time>2011-03-06T10:04:47Z</time>
      </trkpt>
      <trkpt lat="43.15297" lon="5.73497">
        <ele>136.64465332031</ele>
        <time>2011-03-06T10:05:06Z</time>
      </trkpt>
      <trkpt lat="43.15244" lon="5.73556">
        <ele>137.60583496094</ele>
        <time>2011-03-06T10:05:27Z</time>
      </trkpt>
      <trkpt lat="43.15215" lon="5.73612">
        <ele>140.48986816406</ele>
        <time>2011-03-06T10:05:44Z</time>
      </trkpt>
      <trkpt lat="43.15187" lon="5.73665">
        <ele>141.93176269531</ele>
        <time>2011-03-06T10:06:04Z</time>
      </trkpt>
      <trkpt lat="43.15143" lon="5.7367">
        <ele>141.93176269531</ele>
        <time>2011-03-06T10:06:18Z</time>
      </trkpt>
      <trkpt lat="43.15084" lon="5.73651">
        <ele>142.89306640625</ele>
        <time>2011-03-06T10:06:38Z</time>
      </trkpt>
      <trkpt lat="43.15027" lon="5.73633">
        <ele>142.89306640625</ele>
        <time>2011-03-06T10:06:55Z</time>
      </trkpt>
      <trkpt lat="43.15016" lon="5.7364">
        <ele>142.41247558594</ele>
        <time>2011-03-06T10:06:58Z</time>
      </trkpt>
      <trkpt lat="43.15003" lon="5.73641">
        <ele>140.97045898438</ele>
        <time>2011-03-06T10:07:01Z</time>
      </trkpt>
      <trkpt lat="43.14951" lon="5.73634">
        <ele>141.45104980469</ele>
        <time>2011-03-06T10:07:13Z</time>
      </trkpt>
      <trkpt lat="43.1495" lon="5.73637">
        <ele>142.41247558594</ele>
        <time>2011-03-06T10:07:18Z</time>
      </trkpt>
      <trkpt lat="43.14989" lon="5.73637">
        <ele>141.93176269531</ele>
        <time>2011-03-06T10:07:32Z</time>
      </trkpt>
      <trkpt lat="43.14994" lon="5.73639">
        <ele>141.93176269531</ele>
        <time>2011-03-06T10:07:34Z</time>
      </trkpt>
      <trkpt lat="43.14997" lon="5.73643">
        <ele>141.93176269531</ele>
        <time>2011-03-06T10:07:36Z</time>
      </trkpt>
      <trkpt lat="43.14998" lon="5.73636">
        <ele>141.45104980469</ele>
        <time>2011-03-06T10:07:41Z</time>
      </trkpt>
      <trkpt lat="43.1499" lon="5.7362">
        <ele>141.93176269531</ele>
        <time>2011-03-06T10:07:46Z</time>
      </trkpt>
      <trkpt lat="43.14993" lon="5.73607">
        <ele>141.93176269531</ele>
        <time>2011-03-06T10:07:50Z</time>
      </trkpt>
      <trkpt lat="43.14994" lon="5.7358">
        <ele>139.52844238281</ele>
        <time>2011-03-06T10:07:57Z</time>
      </trkpt>
      <trkpt lat="43.14993" lon="5.73576">
        <ele>139.52844238281</ele>
        <time>2011-03-06T10:08:12Z</time>
      </trkpt>
      <trkpt lat="43.14993" lon="5.73576">
        <ele>139.0478515625</ele>
        <time>2011-03-06T10:08:13Z</time>
      </trkpt>
      <trkpt lat="43.14986" lon="5.73559">
        <ele>136.16394042969</ele>
        <time>2011-03-06T10:08:18Z</time>
      </trkpt>
      <trkpt lat="43.14976" lon="5.73547">
        <ele>133.76049804688</ele>
        <time>2011-03-06T10:08:23Z</time>
      </trkpt>
      <trkpt lat="43.14965" lon="5.73536">
        <ele>129.91528320312</ele>
        <time>2011-03-06T10:08:28Z</time>
      </trkpt>
      <trkpt lat="43.14964" lon="5.73523">
        <ele>127.51196289062</ele>
        <time>2011-03-06T10:08:35Z</time>
      </trkpt>
      <trkpt lat="43.1496" lon="5.73516">
        <ele>125.58935546875</ele>
        <time>2011-03-06T10:08:39Z</time>
      </trkpt>
      <trkpt lat="43.14959" lon="5.73514">
        <ele>125.10876464844</ele>
        <time>2011-03-06T10:08:40Z</time>
      </trkpt>
      <trkpt lat="43.14952" lon="5.73508">
        <ele>123.66674804688</ele>
        <time>2011-03-06T10:08:45Z</time>
      </trkpt>
      <trkpt lat="43.1495" lon="5.73508">
        <ele>124.14733886719</ele>
        <time>2011-03-06T10:08:56Z</time>
      </trkpt>
      <trkpt lat="43.14943" lon="5.73505">
        <ele>123.18615722656</ele>
        <time>2011-03-06T10:09:05Z</time>
      </trkpt>
      <trkpt lat="43.14939" lon="5.73494">
        <ele>120.30212402344</ele>
        <time>2011-03-06T10:09:17Z</time>
      </trkpt>
      <trkpt lat="43.14936" lon="5.73484">
        <ele>116.9375</ele>
        <time>2011-03-06T10:09:27Z</time>
      </trkpt>
      <trkpt lat="43.14936" lon="5.73477">
        <ele>115.49560546875</ele>
        <time>2011-03-06T10:09:35Z</time>
      </trkpt>
      <trkpt lat="43.14937" lon="5.73465">
        <ele>112.13098144531</ele>
        <time>2011-03-06T10:09:49Z</time>
      </trkpt>
      <trkpt lat="43.14943" lon="5.73461">
        <ele>110.68884277344</ele>
        <time>2011-03-06T10:09:57Z</time>
      </trkpt>
      <trkpt lat="43.14946" lon="5.73456">
        <ele>108.76623535156</ele>
        <time>2011-03-06T10:10:02Z</time>
      </trkpt>
      <trkpt lat="43.14946" lon="5.7345">
        <ele>107.80505371094</ele>
        <time>2011-03-06T10:10:04Z</time>
      </trkpt>
      <trkpt lat="43.14953" lon="5.73439">
        <ele>104.4404296875</ele>
        <time>2011-03-06T10:10:10Z</time>
      </trkpt>
      <trkpt lat="43.14957" lon="5.73424">
        <ele>102.51770019531</ele>
        <time>2011-03-06T10:10:17Z</time>
      </trkpt>
      <trkpt lat="43.14959" lon="5.73417">
        <ele>100.59509277344</ele>
        <time>2011-03-06T10:10:25Z</time>
      </trkpt>
      <trkpt lat="43.14959" lon="5.73416">
        <ele>100.11450195312</ele>
        <time>2011-03-06T10:10:26Z</time>
      </trkpt>
      <trkpt lat="43.14965" lon="5.73406">
        <ele>97.711181640625</ele>
        <time>2011-03-06T10:10:33Z</time>
      </trkpt>
      <trkpt lat="43.14968" lon="5.73394">
        <ele>95.788452148438</ele>
        <time>2011-03-06T10:10:36Z</time>
      </trkpt>
      <trkpt lat="43.14973" lon="5.73387">
        <ele>94.346557617188</ele>
        <time>2011-03-06T10:10:39Z</time>
      </trkpt>
      <trkpt lat="43.14983" lon="5.73368">
        <ele>90.501342773438</ele>
        <time>2011-03-06T10:10:44Z</time>
      </trkpt>
      <trkpt lat="43.14988" lon="5.73358">
        <ele>90.020629882812</ele>
        <time>2011-03-06T10:10:46Z</time>
      </trkpt>
      <trkpt lat="43.14975" lon="5.73311">
        <ele>88.098022460938</ele>
        <time>2011-03-06T10:10:56Z</time>
      </trkpt>
      <trkpt lat="43.14973" lon="5.73302">
        <ele>87.6171875</ele>
        <time>2011-03-06T10:10:58Z</time>
      </trkpt>
      <trkpt lat="43.14971" lon="5.7327">
        <ele>84.252685546875</ele>
        <time>2011-03-06T10:11:03Z</time>
      </trkpt>
      <trkpt lat="43.1497" lon="5.73263">
        <ele>83.291381835938</ele>
        <time>2011-03-06T10:11:04Z</time>
      </trkpt>
      <trkpt lat="43.14944" lon="5.73229">
        <ele>81.849365234375</ele>
        <time>2011-03-06T10:11:12Z</time>
      </trkpt>
      <trkpt lat="43.1494" lon="5.7323">
        <ele>82.330078125</ele>
        <time>2011-03-06T10:11:13Z</time>
      </trkpt>
      <trkpt lat="43.14915" lon="5.73228">
        <ele>82.330078125</ele>
        <time>2011-03-06T10:11:20Z</time>
      </trkpt>
      <trkpt lat="43.14899" lon="5.7321">
        <ele>78.484741210938</ele>
        <time>2011-03-06T10:11:24Z</time>
      </trkpt>
      <trkpt lat="43.14889" lon="5.73198">
        <ele>74.639526367188</ele>
        <time>2011-03-06T10:11:26Z</time>
      </trkpt>
      <trkpt lat="43.14848" lon="5.73128">
        <ele>71.755493164062</ele>
        <time>2011-03-06T10:11:35Z</time>
      </trkpt>
      <trkpt lat="43.14842" lon="5.7311">
        <ele>70.794189453125</ele>
        <time>2011-03-06T10:11:37Z</time>
      </trkpt>
      <trkpt lat="43.1484" lon="5.73093">
        <ele>69.352294921875</ele>
        <time>2011-03-06T10:11:39Z</time>
      </trkpt>
      <trkpt lat="43.14838" lon="5.73072">
        <ele>66.46826171875</ele>
        <time>2011-03-06T10:11:41Z</time>
      </trkpt>
      <trkpt lat="43.14821" lon="5.73022">
        <ele>64.065063476562</ele>
        <time>2011-03-06T10:11:47Z</time>
      </trkpt>
      <trkpt lat="43.1481" lon="5.73013">
        <ele>63.584350585938</ele>
        <time>2011-03-06T10:11:49Z</time>
      </trkpt>
      <trkpt lat="43.14806" lon="5.73008">
        <ele>63.103637695312</ele>
        <time>2011-03-06T10:11:50Z</time>
      </trkpt>
      <trkpt lat="43.1479" lon="5.72977">
        <ele>58.777709960938</ele>
        <time>2011-03-06T10:11:54Z</time>
      </trkpt>
      <trkpt lat="43.14785" lon="5.72968">
        <ele>57.816528320312</ele>
        <time>2011-03-06T10:11:55Z</time>
      </trkpt>
      <trkpt lat="43.14766" lon="5.72949">
        <ele>56.37451171875</ele>
        <time>2011-03-06T10:11:58Z</time>
      </trkpt>
      <trkpt lat="43.14753" lon="5.72943">
        <ele>57.335815429688</ele>
        <time>2011-03-06T10:12:00Z</time>
      </trkpt>
      <trkpt lat="43.14739" lon="5.72938">
        <ele>60.2197265625</ele>
        <time>2011-03-06T10:12:06Z</time>
      </trkpt>
      <trkpt lat="43.14743" lon="5.7294">
        <ele>60.2197265625</ele>
        <time>2011-03-06T10:12:09Z</time>
      </trkpt>
      <trkpt lat="43.14749" lon="5.72937">
        <ele>59.739135742188</ele>
        <time>2011-03-06T10:12:18Z</time>
      </trkpt>
      <trkpt lat="43.14746" lon="5.72933">
        <ele>59.258422851562</ele>
        <time>2011-03-06T10:12:21Z</time>
      </trkpt>
      <trkpt lat="43.14735" lon="5.72928">
        <ele>56.855102539062</ele>
        <time>2011-03-06T10:12:24Z</time>
      </trkpt>
      <trkpt lat="43.14715" lon="5.72914">
        <ele>53.490478515625</ele>
        <time>2011-03-06T10:12:28Z</time>
      </trkpt>
      <trkpt lat="43.14698" lon="5.72903">
        <ele>52.048583984375</ele>
        <time>2011-03-06T10:12:31Z</time>
      </trkpt>
      <trkpt lat="43.14651" lon="5.72877">
        <ele>49.16455078125</ele>
        <time>2011-03-06T10:12:39Z</time>
      </trkpt>
      <trkpt lat="43.1462" lon="5.72885">
        <ele>51.087158203125</ele>
        <time>2011-03-06T10:12:46Z</time>
      </trkpt>
      <trkpt lat="43.146" lon="5.72896">
        <ele>47.241821289062</ele>
        <time>2011-03-06T10:12:51Z</time>
      </trkpt>
      <trkpt lat="43.14588" lon="5.72902">
        <ele>45.799926757812</ele>
        <time>2011-03-06T10:12:53Z</time>
      </trkpt>
      <trkpt lat="43.14578" lon="5.72911">
        <ele>44.838623046875</ele>
        <time>2011-03-06T10:12:55Z</time>
      </trkpt>
      <trkpt lat="43.14567" lon="5.72918">
        <ele>43.396606445312</ele>
        <time>2011-03-06T10:12:57Z</time>
      </trkpt>
      <trkpt lat="43.14555" lon="5.72945">
        <ele>44.838623046875</ele>
        <time>2011-03-06T10:13:02Z</time>
      </trkpt>
      <trkpt lat="43.14554" lon="5.7295">
        <ele>44.838623046875</ele>
        <time>2011-03-06T10:13:03Z</time>
      </trkpt>
      <trkpt lat="43.14547" lon="5.72965">
        <ele>43.877319335938</ele>
        <time>2011-03-06T10:13:06Z</time>
      </trkpt>
      <trkpt lat="43.14504" lon="5.72971">
        <ele>40.032104492188</ele>
        <time>2011-03-06T10:13:15Z</time>
      </trkpt>
      <trkpt lat="43.14464" lon="5.72966">
        <ele>39.55126953125</ele>
        <time>2011-03-06T10:13:22Z</time>
      </trkpt>
      <trkpt lat="43.14441" lon="5.72952">
        <ele>38.109375</ele>
        <time>2011-03-06T10:13:26Z</time>
      </trkpt>
      <trkpt lat="43.14401" lon="5.72945">
        <ele>36.66748046875</ele>
        <time>2011-03-06T10:13:33Z</time>
      </trkpt>
      <trkpt lat="43.14378" lon="5.72958">
        <ele>36.66748046875</ele>
        <time>2011-03-06T10:13:37Z</time>
      </trkpt>
      <trkpt lat="43.14344" lon="5.72961">
        <ele>35.7060546875</ele>
        <time>2011-03-06T10:13:43Z</time>
      </trkpt>
      <trkpt lat="43.14333" lon="5.72956">
        <ele>34.744873046875</ele>
        <time>2011-03-06T10:13:45Z</time>
      </trkpt>
      <trkpt lat="43.14318" lon="5.72933">
        <ele>31.860717773438</ele>
        <time>2011-03-06T10:13:49Z</time>
      </trkpt>
      <trkpt lat="43.14315" lon="5.72927">
        <ele>31.860717773438</ele>
        <time>2011-03-06T10:13:50Z</time>
      </trkpt>
      <trkpt lat="43.14302" lon="5.72886">
        <ele>30.418823242188</ele>
        <time>2011-03-06T10:13:56Z</time>
      </trkpt>
      <trkpt lat="43.14299" lon="5.72879">
        <ele>30.418823242188</ele>
        <time>2011-03-06T10:13:57Z</time>
      </trkpt>
      <trkpt lat="43.1428" lon="5.72867">
        <ele>28.976928710938</ele>
        <time>2011-03-06T10:14:01Z</time>
      </trkpt>
      <trkpt lat="43.14268" lon="5.72868">
        <ele>28.015502929688</ele>
        <time>2011-03-06T10:14:03Z</time>
      </trkpt>
      <trkpt lat="43.14248" lon="5.72864">
        <ele>26.573608398438</ele>
        <time>2011-03-06T10:14:06Z</time>
      </trkpt>
      <trkpt lat="43.14231" lon="5.72845">
        <ele>24.170288085938</ele>
        <time>2011-03-06T10:14:09Z</time>
      </trkpt>
      <trkpt lat="43.14202" lon="5.72807">
        <ele>23.208984375</ele>
        <time>2011-03-06T10:14:15Z</time>
      </trkpt>
      <trkpt lat="43.1418" lon="5.7277">
        <ele>21.286376953125</ele>
        <time>2011-03-06T10:14:20Z</time>
      </trkpt>
      <trkpt lat="43.14156" lon="5.72756">
        <ele>24.651000976562</ele>
        <time>2011-03-06T10:14:25Z</time>
      </trkpt>
      <trkpt lat="43.14156" lon="5.72746">
        <ele>26.573608398438</ele>
        <time>2011-03-06T10:14:29Z</time>
      </trkpt>
      <trkpt lat="43.14158" lon="5.72745">
        <ele>27.534912109375</ele>
        <time>2011-03-06T10:14:41Z</time>
      </trkpt>
      <trkpt lat="43.14158" lon="5.72745">
        <ele>27.054321289062</ele>
        <time>2011-03-06T10:14:48Z</time>
      </trkpt>
      <trkpt lat="43.14157" lon="5.72744">
        <ele>27.534912109375</ele>
        <time>2011-03-06T10:14:55Z</time>
      </trkpt>
      <trkpt lat="43.14156" lon="5.72745">
        <ele>27.534912109375</ele>
        <time>2011-03-06T10:15:08Z</time>
      </trkpt>
      <trkpt lat="43.14156" lon="5.72745">
        <ele>27.534912109375</ele>
        <time>2011-03-06T10:15:13Z</time>
      </trkpt>
      <trkpt lat="43.14155" lon="5.72753">
        <ele>25.6123046875</ele>
        <time>2011-03-06T10:15:16Z</time>
      </trkpt>
      <trkpt lat="43.14168" lon="5.72767">
        <ele>22.728271484375</ele>
        <time>2011-03-06T10:15:21Z</time>
      </trkpt>
      <trkpt lat="43.14175" lon="5.72776">
        <ele>23.689575195312</ele>
        <time>2011-03-06T10:15:26Z</time>
      </trkpt>
      <trkpt lat="43.14216" lon="5.72829">
        <ele>26.092895507812</ele>
        <time>2011-03-06T10:15:37Z</time>
      </trkpt>
      <trkpt lat="43.14233" lon="5.72847">
        <ele>28.015502929688</ele>
        <time>2011-03-06T10:15:50Z</time>
      </trkpt>
      <trkpt lat="43.14242" lon="5.72856">
        <ele>29.45751953125</ele>
        <time>2011-03-06T10:15:55Z</time>
      </trkpt>
      <trkpt lat="43.14291" lon="5.72865">
        <ele>31.860717773438</ele>
        <time>2011-03-06T10:16:12Z</time>
      </trkpt>
      <trkpt lat="43.1431" lon="5.72901">
        <ele>33.302856445312</ele>
        <time>2011-03-06T10:16:24Z</time>
      </trkpt>
      <trkpt lat="43.14311" lon="5.72905">
        <ele>33.302856445312</ele>
        <time>2011-03-06T10:16:25Z</time>
      </trkpt>
      <trkpt lat="43.14314" lon="5.7292">
        <ele>34.26416015625</ele>
        <time>2011-03-06T10:16:30Z</time>
      </trkpt>
      <trkpt lat="43.14336" lon="5.72952">
        <ele>36.66748046875</ele>
        <time>2011-03-06T10:16:43Z</time>
      </trkpt>
      <trkpt lat="43.14362" lon="5.7296">
        <ele>39.070678710938</ele>
        <time>2011-03-06T10:16:58Z</time>
      </trkpt>
      <trkpt lat="43.14403" lon="5.7294">
        <ele>40.032104492188</ele>
        <time>2011-03-06T10:17:15Z</time>
      </trkpt>
      <trkpt lat="43.14417" lon="5.72936">
        <ele>40.512817382812</ele>
        <time>2011-03-06T10:17:20Z</time>
      </trkpt>
      <trkpt lat="43.14453" lon="5.72956">
        <ele>41.473999023438</ele>
        <time>2011-03-06T10:17:36Z</time>
      </trkpt>
      <trkpt lat="43.14478" lon="5.72961">
        <ele>42.916015625</ele>
        <time>2011-03-06T10:17:47Z</time>
      </trkpt>
      <trkpt lat="43.14526" lon="5.72966">
        <ele>44.358032226562</ele>
        <time>2011-03-06T10:18:05Z</time>
      </trkpt>
      <trkpt lat="43.14553" lon="5.72952">
        <ele>46.76123046875</ele>
        <time>2011-03-06T10:18:18Z</time>
      </trkpt>
      <trkpt lat="43.14568" lon="5.72913">
        <ele>46.76123046875</ele>
        <time>2011-03-06T10:18:31Z</time>
      </trkpt>
      <trkpt lat="43.14595" lon="5.72896">
        <ele>49.645263671875</ele>
        <time>2011-03-06T10:18:46Z</time>
      </trkpt>
      <trkpt lat="43.14617" lon="5.72885">
        <ele>52.529174804688</ele>
        <time>2011-03-06T10:18:59Z</time>
      </trkpt>
      <trkpt lat="43.14625" lon="5.7288">
        <ele>52.529174804688</ele>
        <time>2011-03-06T10:19:16Z</time>
      </trkpt>
      <trkpt lat="43.1465" lon="5.72874">
        <ele>52.529174804688</ele>
        <time>2011-03-06T10:19:27Z</time>
      </trkpt>
      <trkpt lat="43.14651" lon="5.72874">
        <ele>52.529174804688</ele>
        <time>2011-03-06T10:19:28Z</time>
      </trkpt>
      <trkpt lat="43.1465" lon="5.72862">
        <ele>50.606567382812</ele>
        <time>2011-03-06T10:19:33Z</time>
      </trkpt>
      <trkpt lat="43.14646" lon="5.72855">
        <ele>52.529174804688</ele>
        <time>2011-03-06T10:19:43Z</time>
      </trkpt>
      <trkpt lat="43.1464" lon="5.7285">
        <ele>54.451782226562</ele>
        <time>2011-03-06T10:19:52Z</time>
      </trkpt>
      <trkpt lat="43.14628" lon="5.72843">
        <ele>57.816528320312</ele>
        <time>2011-03-06T10:20:07Z</time>
      </trkpt>
      <trkpt lat="43.14617" lon="5.7284">
        <ele>60.700317382812</ele>
        <time>2011-03-06T10:20:26Z</time>
      </trkpt>
      <trkpt lat="43.14601" lon="5.72839">
        <ele>63.103637695312</ele>
        <time>2011-03-06T10:20:41Z</time>
      </trkpt>
      <trkpt lat="43.14588" lon="5.72838">
        <ele>64.545654296875</ele>
        <time>2011-03-06T10:20:55Z</time>
      </trkpt>
      <trkpt lat="43.14566" lon="5.72839">
        <ele>67.4296875</ele>
        <time>2011-03-06T10:21:15Z</time>
      </trkpt>
      <trkpt lat="43.14546" lon="5.72838">
        <ele>69.832885742188</ele>
        <time>2011-03-06T10:21:37Z</time>
      </trkpt>
      <trkpt lat="43.14525" lon="5.72844">
        <ele>69.832885742188</ele>
        <time>2011-03-06T10:21:55Z</time>
      </trkpt>
      <trkpt lat="43.14483" lon="5.72848">
        <ele>69.832885742188</ele>
        <time>2011-03-06T10:22:10Z</time>
      </trkpt>
      <trkpt lat="43.14468" lon="5.72822">
        <ele>72.716918945312</ele>
        <time>2011-03-06T10:22:22Z</time>
      </trkpt>
      <trkpt lat="43.14451" lon="5.72782">
        <ele>74.158813476562</ele>
        <time>2011-03-06T10:22:38Z</time>
      </trkpt>
      <trkpt lat="43.14452" lon="5.72762">
        <ele>75.120239257812</ele>
        <time>2011-03-06T10:22:44Z</time>
      </trkpt>
      <trkpt lat="43.14427" lon="5.72725">
        <ele>71.755493164062</ele>
        <time>2011-03-06T10:22:58Z</time>
      </trkpt>
      <trkpt lat="43.1441" lon="5.72673">
        <ele>69.832885742188</ele>
        <time>2011-03-06T10:23:10Z</time>
      </trkpt>
      <trkpt lat="43.1441" lon="5.72668">
        <ele>70.3134765625</ele>
        <time>2011-03-06T10:23:11Z</time>
      </trkpt>
      <trkpt lat="43.14424" lon="5.72643">
        <ele>72.716918945312</ele>
        <time>2011-03-06T10:23:21Z</time>
      </trkpt>
      <trkpt lat="43.14423" lon="5.72646">
        <ele>72.236206054688</ele>
        <time>2011-03-06T10:23:39Z</time>
      </trkpt>
      <trkpt lat="43.14423" lon="5.72646">
        <ele>72.716918945312</ele>
        <time>2011-03-06T10:24:05Z</time>
      </trkpt>
      <trkpt lat="43.1443" lon="5.72638">
        <ele>72.716918945312</ele>
        <time>2011-03-06T10:24:40Z</time>
      </trkpt>
      <trkpt lat="43.14441" lon="5.7261">
        <ele>71.755493164062</ele>
        <time>2011-03-06T10:24:47Z</time>
      </trkpt>
      <trkpt lat="43.14448" lon="5.72594">
        <ele>71.27490234375</ele>
        <time>2011-03-06T10:24:50Z</time>
      </trkpt>
      <trkpt lat="43.14447" lon="5.72576">
        <ele>67.910278320312</ele>
        <time>2011-03-06T10:24:53Z</time>
      </trkpt>
      <trkpt lat="43.14446" lon="5.7257">
        <ele>67.4296875</ele>
        <time>2011-03-06T10:24:54Z</time>
      </trkpt>
      <trkpt lat="43.14449" lon="5.72548">
        <ele>62.622924804688</ele>
        <time>2011-03-06T10:24:57Z</time>
      </trkpt>
      <trkpt lat="43.14451" lon="5.72531">
        <ele>58.777709960938</ele>
        <time>2011-03-06T10:24:59Z</time>
      </trkpt>
      <trkpt lat="43.14455" lon="5.72503">
        <ele>57.816528320312</ele>
        <time>2011-03-06T10:25:02Z</time>
      </trkpt>
      <trkpt lat="43.14458" lon="5.72476">
        <ele>56.37451171875</ele>
        <time>2011-03-06T10:25:05Z</time>
      </trkpt>
      <trkpt lat="43.14461" lon="5.72459">
        <ele>55.4130859375</ele>
        <time>2011-03-06T10:25:07Z</time>
      </trkpt>
      <trkpt lat="43.14457" lon="5.72445">
        <ele>55.893798828125</ele>
        <time>2011-03-06T10:25:10Z</time>
      </trkpt>
      <trkpt lat="43.14453" lon="5.72435">
        <ele>53.97119140625</ele>
        <time>2011-03-06T10:25:13Z</time>
      </trkpt>
      <trkpt lat="43.14453" lon="5.72431">
        <ele>53.490478515625</ele>
        <time>2011-03-06T10:25:14Z</time>
      </trkpt>
      <trkpt lat="43.14448" lon="5.72418">
        <ele>50.606567382812</ele>
        <time>2011-03-06T10:25:17Z</time>
      </trkpt>
      <trkpt lat="43.14448" lon="5.72404">
        <ele>52.529174804688</ele>
        <time>2011-03-06T10:25:20Z</time>
      </trkpt>
      <trkpt lat="43.14448" lon="5.72396">
        <ele>53.490478515625</ele>
        <time>2011-03-06T10:25:31Z</time>
      </trkpt>
      <trkpt lat="43.14448" lon="5.72396">
        <ele>53.009765625</ele>
        <time>2011-03-06T10:27:03Z</time>
      </trkpt>
      <trkpt lat="43.14459" lon="5.72381">
        <ele>54.932373046875</ele>
        <time>2011-03-06T10:27:11Z</time>
      </trkpt>
      <trkpt lat="43.1448" lon="5.72346">
        <ele>57.816528320312</ele>
        <time>2011-03-06T10:27:27Z</time>
      </trkpt>
      <trkpt lat="43.14503" lon="5.7231">
        <ele>57.816528320312</ele>
        <time>2011-03-06T10:27:41Z</time>
      </trkpt>
      <trkpt lat="43.14523" lon="5.72286">
        <ele>61.181030273438</ele>
        <time>2011-03-06T10:27:51Z</time>
      </trkpt>
      <trkpt lat="43.14549" lon="5.72255">
        <ele>64.065063476562</ele>
        <time>2011-03-06T10:28:08Z</time>
      </trkpt>
      <trkpt lat="43.14577" lon="5.72224">
        <ele>66.46826171875</ele>
        <time>2011-03-06T10:28:25Z</time>
      </trkpt>
      <trkpt lat="43.14601" lon="5.72204">
        <ele>68.390869140625</ele>
        <time>2011-03-06T10:28:41Z</time>
      </trkpt>
      <trkpt lat="43.1463" lon="5.72177">
        <ele>70.3134765625</ele>
        <time>2011-03-06T10:28:58Z</time>
      </trkpt>
      <trkpt lat="43.14662" lon="5.72151">
        <ele>72.716918945312</ele>
        <time>2011-03-06T10:29:17Z</time>
      </trkpt>
      <trkpt lat="43.14689" lon="5.72135">
        <ele>73.197631835938</ele>
        <time>2011-03-06T10:29:32Z</time>
      </trkpt>
      <trkpt lat="43.14719" lon="5.72119">
        <ele>74.158813476562</ele>
        <time>2011-03-06T10:29:47Z</time>
      </trkpt>
      <trkpt lat="43.14724" lon="5.72116">
        <ele>74.158813476562</ele>
        <time>2011-03-06T10:30:00Z</time>
      </trkpt>
      <trkpt lat="43.14724" lon="5.72116">
        <ele>74.158813476562</ele>
        <time>2011-03-06T10:30:25Z</time>
      </trkpt>
      <trkpt lat="43.14723" lon="5.72115">
        <ele>74.158813476562</ele>
        <time>2011-03-06T10:30:39Z</time>
      </trkpt>
      <trkpt lat="43.14753" lon="5.72103">
        <ele>72.236206054688</ele>
        <time>2011-03-06T10:30:52Z</time>
      </trkpt>
      <trkpt lat="43.14766" lon="5.72104">
        <ele>71.755493164062</ele>
        <time>2011-03-06T10:30:56Z</time>
      </trkpt>
      <trkpt lat="43.14798" lon="5.72113">
        <ele>71.27490234375</ele>
        <time>2011-03-06T10:31:11Z</time>
      </trkpt>
      <trkpt lat="43.14803" lon="5.72114">
        <ele>70.3134765625</ele>
        <time>2011-03-06T10:31:13Z</time>
      </trkpt>
      <trkpt lat="43.14806" lon="5.72115">
        <ele>69.832885742188</ele>
        <time>2011-03-06T10:31:14Z</time>
      </trkpt>
      <trkpt lat="43.14823" lon="5.72119">
        <ele>65.0263671875</ele>
        <time>2011-03-06T10:31:18Z</time>
      </trkpt>
      <trkpt lat="43.14828" lon="5.72122">
        <ele>64.545654296875</ele>
        <time>2011-03-06T10:31:19Z</time>
      </trkpt>
      <trkpt lat="43.14847" lon="5.72129">
        <ele>62.622924804688</ele>
        <time>2011-03-06T10:31:22Z</time>
      </trkpt>
      <trkpt lat="43.14874" lon="5.72138">
        <ele>64.545654296875</ele>
        <time>2011-03-06T10:31:28Z</time>
      </trkpt>
      <trkpt lat="43.14886" lon="5.72139">
        <ele>65.987670898438</ele>
        <time>2011-03-06T10:31:40Z</time>
      </trkpt>
      <trkpt lat="43.14886" lon="5.72138">
        <ele>65.987670898438</ele>
        <time>2011-03-06T10:31:48Z</time>
      </trkpt>
      <trkpt lat="43.14885" lon="5.72137">
        <ele>65.987670898438</ele>
        <time>2011-03-06T10:31:52Z</time>
      </trkpt>
      <trkpt lat="43.14875" lon="5.72133">
        <ele>65.0263671875</ele>
        <time>2011-03-06T10:32:01Z</time>
      </trkpt>
      <trkpt lat="43.14859" lon="5.72127">
        <ele>63.103637695312</ele>
        <time>2011-03-06T10:32:10Z</time>
      </trkpt>
      <trkpt lat="43.14858" lon="5.72129">
        <ele>63.584350585938</ele>
        <time>2011-03-06T10:32:18Z</time>
      </trkpt>
      <trkpt lat="43.14858" lon="5.7213">
        <ele>63.584350585938</ele>
        <time>2011-03-06T10:32:21Z</time>
      </trkpt>
      <trkpt lat="43.14869" lon="5.72122">
        <ele>59.258422851562</ele>
        <time>2011-03-06T10:32:27Z</time>
      </trkpt>
      <trkpt lat="43.14881" lon="5.72114">
        <ele>56.855102539062</ele>
        <time>2011-03-06T10:32:31Z</time>
      </trkpt>
      <trkpt lat="43.14893" lon="5.72103">
        <ele>53.009765625</ele>
        <time>2011-03-06T10:32:40Z</time>
      </trkpt>
      <trkpt lat="43.14898" lon="5.72099">
        <ele>52.048583984375</ele>
        <time>2011-03-06T10:32:42Z</time>
      </trkpt>
      <trkpt lat="43.14906" lon="5.72094">
        <ele>49.16455078125</ele>
        <time>2011-03-06T10:32:46Z</time>
      </trkpt>
      <trkpt lat="43.1491" lon="5.7208">
        <ele>45.799926757812</ele>
        <time>2011-03-06T10:32:51Z</time>
      </trkpt>
      <trkpt lat="43.14904" lon="5.72075">
        <ele>45.319213867188</ele>
        <time>2011-03-06T10:32:56Z</time>
      </trkpt>
      <trkpt lat="43.149" lon="5.72077">
        <ele>44.838623046875</ele>
        <time>2011-03-06T10:32:58Z</time>
      </trkpt>
      <trkpt lat="43.1488" lon="5.72065">
        <ele>41.954711914062</ele>
        <time>2011-03-06T10:33:04Z</time>
      </trkpt>
      <trkpt lat="43.14872" lon="5.72027">
        <ele>39.55126953125</ele>
        <time>2011-03-06T10:33:14Z</time>
      </trkpt>
      <trkpt lat="43.14874" lon="5.71984">
        <ele>40.993408203125</ele>
        <time>2011-03-06T10:33:21Z</time>
      </trkpt>
      <trkpt lat="43.14875" lon="5.71964">
        <ele>44.358032226562</ele>
        <time>2011-03-06T10:33:30Z</time>
      </trkpt>
      <trkpt lat="43.14872" lon="5.71949">
        <ele>47.241821289062</ele>
        <time>2011-03-06T10:33:38Z</time>
      </trkpt>
      <trkpt lat="43.14874" lon="5.7194">
        <ele>48.203369140625</ele>
        <time>2011-03-06T10:33:57Z</time>
      </trkpt>
      <trkpt lat="43.14873" lon="5.71923">
        <ele>51.56787109375</ele>
        <time>2011-03-06T10:34:10Z</time>
      </trkpt>
      <trkpt lat="43.14871" lon="5.71901">
        <ele>53.97119140625</ele>
        <time>2011-03-06T10:34:26Z</time>
      </trkpt>
      <trkpt lat="43.14872" lon="5.719">
        <ele>54.451782226562</ele>
        <time>2011-03-06T10:34:38Z</time>
      </trkpt>
      <trkpt lat="43.14875" lon="5.71896">
        <ele>54.451782226562</ele>
        <time>2011-03-06T10:34:41Z</time>
      </trkpt>
      <trkpt lat="43.14874" lon="5.71871">
        <ele>54.932373046875</ele>
        <time>2011-03-06T10:34:51Z</time>
      </trkpt>
      <trkpt lat="43.14855" lon="5.71854">
        <ele>50.606567382812</ele>
        <time>2011-03-06T10:34:57Z</time>
      </trkpt>
      <trkpt lat="43.14846" lon="5.71849">
        <ele>50.1259765625</ele>
        <time>2011-03-06T10:34:59Z</time>
      </trkpt>
      <trkpt lat="43.14838" lon="5.71838">
        <ele>50.606567382812</ele>
        <time>2011-03-06T10:35:07Z</time>
      </trkpt>
      <trkpt lat="43.14838" lon="5.71818">
        <ele>47.722534179688</ele>
        <time>2011-03-06T10:35:13Z</time>
      </trkpt>
      <trkpt lat="43.14842" lon="5.71782">
        <ele>44.358032226562</ele>
        <time>2011-03-06T10:35:21Z</time>
      </trkpt>
      <trkpt lat="43.14842" lon="5.71775">
        <ele>44.358032226562</ele>
        <time>2011-03-06T10:35:22Z</time>
      </trkpt>
      <trkpt lat="43.14843" lon="5.71753">
        <ele>44.358032226562</ele>
        <time>2011-03-06T10:35:25Z</time>
      </trkpt>
      <trkpt lat="43.14861" lon="5.717">
        <ele>44.358032226562</ele>
        <time>2011-03-06T10:35:35Z</time>
      </trkpt>
      <trkpt lat="43.14869" lon="5.71682">
        <ele>41.473999023438</ele>
        <time>2011-03-06T10:35:40Z</time>
      </trkpt>
      <trkpt lat="43.14878" lon="5.71641">
        <ele>37.148071289062</ele>
        <time>2011-03-06T10:35:45Z</time>
      </trkpt>
      <trkpt lat="43.14879" lon="5.71632">
        <ele>35.7060546875</ele>
        <time>2011-03-06T10:35:46Z</time>
      </trkpt>
      <trkpt lat="43.14873" lon="5.71579">
        <ele>32.341552734375</ele>
        <time>2011-03-06T10:35:51Z</time>
      </trkpt>
      <trkpt lat="43.14856" lon="5.71547">
        <ele>30.899536132812</ele>
        <time>2011-03-06T10:35:55Z</time>
      </trkpt>
      <trkpt lat="43.1486" lon="5.71527">
        <ele>30.899536132812</ele>
        <time>2011-03-06T10:36:01Z</time>
      </trkpt>
      <trkpt lat="43.14864" lon="5.71527">
        <ele>30.899536132812</ele>
        <time>2011-03-06T10:36:07Z</time>
      </trkpt>
      <trkpt lat="43.14854" lon="5.7153">
        <ele>31.860717773438</ele>
        <time>2011-03-06T10:36:20Z</time>
      </trkpt>
      <trkpt lat="43.14853" lon="5.71527">
        <ele>31.860717773438</ele>
        <time>2011-03-06T10:36:32Z</time>
      </trkpt>
      <trkpt lat="43.1485" lon="5.71527">
        <ele>32.341552734375</ele>
        <time>2011-03-06T10:36:43Z</time>
      </trkpt>
      <trkpt lat="43.14854" lon="5.71503">
        <ele>28.496215820312</ele>
        <time>2011-03-06T10:36:50Z</time>
      </trkpt>
      <trkpt lat="43.14856" lon="5.71497">
        <ele>27.534912109375</ele>
        <time>2011-03-06T10:36:51Z</time>
      </trkpt>
      <trkpt lat="43.14861" lon="5.71477">
        <ele>22.728271484375</ele>
        <time>2011-03-06T10:36:55Z</time>
      </trkpt>
      <trkpt lat="43.14861" lon="5.71454">
        <ele>17.921752929688</ele>
        <time>2011-03-06T10:36:58Z</time>
      </trkpt>
      <trkpt lat="43.14857" lon="5.71428">
        <ele>14.076416015625</ele>
        <time>2011-03-06T10:37:01Z</time>
      </trkpt>
      <trkpt lat="43.14852" lon="5.71407">
        <ele>10.711791992188</ele>
        <time>2011-03-06T10:37:03Z</time>
      </trkpt>
      <trkpt lat="43.14846" lon="5.71377">
        <ele>8.7891845703125</ele>
        <time>2011-03-06T10:37:06Z</time>
      </trkpt>
      <trkpt lat="43.14847" lon="5.71348">
        <ele>5.9052734375</ele>
        <time>2011-03-06T10:37:10Z</time>
      </trkpt>
      <trkpt lat="43.14851" lon="5.71341">
        <ele>5.9052734375</ele>
        <time>2011-03-06T10:37:12Z</time>
      </trkpt>
      <trkpt lat="43.14858" lon="5.71328">
        <ele>4.4632568359375</ele>
        <time>2011-03-06T10:37:15Z</time>
      </trkpt>
      <trkpt lat="43.14867" lon="5.71284">
        <ele>4.4632568359375</ele>
        <time>2011-03-06T10:37:24Z</time>
      </trkpt>
      <trkpt lat="43.14872" lon="5.71276">
        <ele>4.4632568359375</ele>
        <time>2011-03-06T10:37:26Z</time>
      </trkpt>
      <trkpt lat="43.1488" lon="5.71241">
        <ele>3.021240234375</ele>
        <time>2011-03-06T10:37:32Z</time>
      </trkpt>
      <trkpt lat="43.14881" lon="5.71206">
        <ele>3.021240234375</ele>
        <time>2011-03-06T10:37:38Z</time>
      </trkpt>
      <trkpt lat="43.14883" lon="5.71161">
        <ele>2.06005859375</ele>
        <time>2011-03-06T10:37:47Z</time>
      </trkpt>
      <trkpt lat="43.14882" lon="5.71115">
        <ele>1.579345703125</ele>
        <time>2011-03-06T10:37:56Z</time>
      </trkpt>
      <trkpt lat="43.14874" lon="5.71097">
        <ele>1.0986328125</ele>
        <time>2011-03-06T10:37:59Z</time>
      </trkpt>
      <trkpt lat="43.14862" lon="5.71049">
        <ele>0.6180419921875</ele>
        <time>2011-03-06T10:38:06Z</time>
      </trkpt>
      <trkpt lat="43.14855" lon="5.71033">
        <ele>-0.3433837890625</ele>
        <time>2011-03-06T10:38:09Z</time>
      </trkpt>
      <trkpt lat="43.14841" lon="5.71023">
        <ele>-0.3433837890625</ele>
        <time>2011-03-06T10:38:13Z</time>
      </trkpt>
      <trkpt lat="43.14832" lon="5.7102">
        <ele>-0.8240966796875</ele>
        <time>2011-03-06T10:38:15Z</time>
      </trkpt>
      <trkpt lat="43.14814" lon="5.71012">
        <ele>-0.8240966796875</ele>
        <time>2011-03-06T10:38:19Z</time>
      </trkpt>
      <trkpt lat="43.14804" lon="5.71002">
        <ele>0.137451171875</ele>
        <time>2011-03-06T10:38:23Z</time>
      </trkpt>
      <trkpt lat="43.14796" lon="5.71003">
        <ele>0.137451171875</ele>
        <time>2011-03-06T10:38:26Z</time>
      </trkpt>
      <trkpt lat="43.14789" lon="5.70998">
        <ele>-0.3433837890625</ele>
        <time>2011-03-06T10:38:29Z</time>
      </trkpt>
      <trkpt lat="43.14765" lon="5.70969">
        <ele>-0.8240966796875</ele>
        <time>2011-03-06T10:38:41Z</time>
      </trkpt>
      <trkpt lat="43.14747" lon="5.70943">
        <ele>0.137451171875</ele>
        <time>2011-03-06T10:38:53Z</time>
      </trkpt>
      <trkpt lat="43.14747" lon="5.70946">
        <ele>0.6180419921875</ele>
        <time>2011-03-06T10:39:06Z</time>
      </trkpt>
      <trkpt lat="43.1475" lon="5.70957">
        <ele>0.137451171875</ele>
        <time>2011-03-06T10:39:10Z</time>
      </trkpt>
      <trkpt lat="43.1474" lon="5.71006">
        <ele>0.137451171875</ele>
        <time>2011-03-06T10:39:25Z</time>
      </trkpt>
      <trkpt lat="43.14735" lon="5.71012">
        <ele>1.579345703125</ele>
        <time>2011-03-06T10:39:28Z</time>
      </trkpt>
      <trkpt lat="43.14728" lon="5.71014">
        <ele>3.021240234375</ele>
        <time>2011-03-06T10:39:38Z</time>
      </trkpt>
      <trkpt lat="43.14714" lon="5.71018">
        <ele>5.9052734375</ele>
        <time>2011-03-06T10:39:54Z</time>
      </trkpt>
      <trkpt lat="43.14702" lon="5.71018">
        <ele>5.9052734375</ele>
        <time>2011-03-06T10:40:07Z</time>
      </trkpt>
      <trkpt lat="43.14688" lon="5.71014">
        <ele>3.982666015625</ele>
        <time>2011-03-06T10:40:12Z</time>
      </trkpt>
      <trkpt lat="43.14683" lon="5.71017">
        <ele>4.4632568359375</ele>
        <time>2011-03-06T10:40:22Z</time>
      </trkpt>
      <trkpt lat="43.14681" lon="5.71013">
        <ele>3.501953125</ele>
        <time>2011-03-06T10:42:30Z</time>
      </trkpt>
      <trkpt lat="43.14677" lon="5.71006">
        <ele>1.0986328125</ele>
        <time>2011-03-06T10:42:34Z</time>
      </trkpt>
      <trkpt lat="43.14677" lon="5.71002">
        <ele>-0.8240966796875</ele>
        <time>2011-03-06T10:42:39Z</time>
      </trkpt>
      <trkpt lat="43.14676" lon="5.71003">
        <ele>-0.8240966796875</ele>
        <time>2011-03-06T10:43:13Z</time>
      </trkpt>
      <trkpt lat="43.14676" lon="5.71003">
        <ele>0.137451171875</ele>
        <time>2011-03-06T10:45:01Z</time>
      </trkpt>
      <trkpt lat="43.14679" lon="5.71007">
        <ele>3.501953125</ele>
        <time>2011-03-06T10:46:02Z</time>
      </trkpt>
      <trkpt lat="43.14684" lon="5.71011">
        <ele>5.424560546875</ele>
        <time>2011-03-06T10:46:08Z</time>
      </trkpt>
      <trkpt lat="43.14683" lon="5.71016">
        <ele>6.3858642578125</ele>
        <time>2011-03-06T10:46:29Z</time>
      </trkpt>
      <trkpt lat="43.14683" lon="5.71017">
        <ele>6.3858642578125</ele>
        <time>2011-03-06T10:46:32Z</time>
      </trkpt>
      <trkpt lat="43.14678" lon="5.71022">
        <ele>6.866455078125</ele>
        <time>2011-03-06T10:46:44Z</time>
      </trkpt>
      <trkpt lat="43.14671" lon="5.71022">
        <ele>6.3858642578125</ele>
        <time>2011-03-06T10:46:48Z</time>
      </trkpt>
      <trkpt lat="43.14662" lon="5.71025">
        <ele>7.34716796875</ele>
        <time>2011-03-06T10:46:52Z</time>
      </trkpt>
      <trkpt lat="43.14655" lon="5.71025">
        <ele>7.827880859375</ele>
        <time>2011-03-06T10:46:55Z</time>
      </trkpt>
      <trkpt lat="43.14643" lon="5.71026">
        <ele>7.34716796875</ele>
        <time>2011-03-06T10:47:01Z</time>
      </trkpt>
      <trkpt lat="43.1464" lon="5.71027">
        <ele>8.30859375</ele>
        <time>2011-03-06T10:47:04Z</time>
      </trkpt>
      <trkpt lat="43.14626" lon="5.71029">
        <ele>9.2698974609375</ele>
        <time>2011-03-06T10:47:16Z</time>
      </trkpt>
      <trkpt lat="43.146" lon="5.71033">
        <ele>11.673217773438</ele>
        <time>2011-03-06T10:47:30Z</time>
      </trkpt>
      <trkpt lat="43.14589" lon="5.7104">
        <ele>14.076416015625</ele>
        <time>2011-03-06T10:47:40Z</time>
      </trkpt>
      <trkpt lat="43.14576" lon="5.71049">
        <ele>16.96044921875</ele>
        <time>2011-03-06T10:47:55Z</time>
      </trkpt>
      <trkpt lat="43.14571" lon="5.71053">
        <ele>18.40234375</ele>
        <time>2011-03-06T10:48:01Z</time>
      </trkpt>
      <trkpt lat="43.14565" lon="5.7106">
        <ele>19.36376953125</ele>
        <time>2011-03-06T10:48:09Z</time>
      </trkpt>
      <trkpt lat="43.14559" lon="5.71066">
        <ele>20.324951171875</ele>
        <time>2011-03-06T10:48:25Z</time>
      </trkpt>
      <trkpt lat="43.14552" lon="5.71077">
        <ele>20.324951171875</ele>
        <time>2011-03-06T10:48:30Z</time>
      </trkpt>
      <trkpt lat="43.14552" lon="5.71105">
        <ele>21.766967773438</ele>
        <time>2011-03-06T10:48:42Z</time>
      </trkpt>
      <trkpt lat="43.14556" lon="5.71155">
        <ele>24.170288085938</ele>
        <time>2011-03-06T10:49:01Z</time>
      </trkpt>
      <trkpt lat="43.14557" lon="5.71159">
        <ele>24.651000976562</ele>
        <time>2011-03-06T10:49:02Z</time>
      </trkpt>
      <trkpt lat="43.14566" lon="5.71163">
        <ele>26.092895507812</ele>
        <time>2011-03-06T10:49:08Z</time>
      </trkpt>
      <trkpt lat="43.14571" lon="5.71166">
        <ele>27.054321289062</ele>
        <time>2011-03-06T10:49:12Z</time>
      </trkpt>
      <trkpt lat="43.14579" lon="5.71172">
        <ele>28.496215820312</ele>
        <time>2011-03-06T10:49:19Z</time>
      </trkpt>
      <trkpt lat="43.14584" lon="5.71176">
        <ele>29.45751953125</ele>
        <time>2011-03-06T10:49:32Z</time>
      </trkpt>
      <trkpt lat="43.14585" lon="5.71177">
        <ele>29.45751953125</ele>
        <time>2011-03-06T10:49:34Z</time>
      </trkpt>
      <trkpt lat="43.14599" lon="5.7119">
        <ele>32.341552734375</ele>
        <time>2011-03-06T10:49:52Z</time>
      </trkpt>
      <trkpt lat="43.14609" lon="5.71198">
        <ele>33.783447265625</ele>
        <time>2011-03-06T10:50:06Z</time>
      </trkpt>
      <trkpt lat="43.14617" lon="5.71203">
        <ele>35.225463867188</ele>
        <time>2011-03-06T10:50:11Z</time>
      </trkpt>
      <trkpt lat="43.1462" lon="5.71208">
        <ele>35.7060546875</ele>
        <time>2011-03-06T10:50:14Z</time>
      </trkpt>
      <trkpt lat="43.14648" lon="5.7124">
        <ele>37.628662109375</ele>
        <time>2011-03-06T10:50:31Z</time>
      </trkpt>
      <trkpt lat="43.14653" lon="5.71245">
        <ele>38.109375</ele>
        <time>2011-03-06T10:50:34Z</time>
      </trkpt>
      <trkpt lat="43.14666" lon="5.71285">
        <ele>40.032104492188</ele>
        <time>2011-03-06T10:50:50Z</time>
      </trkpt>
      <trkpt lat="43.14687" lon="5.71316">
        <ele>42.435424804688</ele>
        <time>2011-03-06T10:51:07Z</time>
      </trkpt>
      <trkpt lat="43.14706" lon="5.71338">
        <ele>41.954711914062</ele>
        <time>2011-03-06T10:51:17Z</time>
      </trkpt>
      <trkpt lat="43.14739" lon="5.71376">
        <ele>42.435424804688</ele>
        <time>2011-03-06T10:51:31Z</time>
      </trkpt>
      <trkpt lat="43.14768" lon="5.71409">
        <ele>41.473999023438</ele>
        <time>2011-03-06T10:51:42Z</time>
      </trkpt>
      <trkpt lat="43.14787" lon="5.71436">
        <ele>37.148071289062</ele>
        <time>2011-03-06T10:51:47Z</time>
      </trkpt>
      <trkpt lat="43.14791" lon="5.71444">
        <ele>36.186767578125</ele>
        <time>2011-03-06T10:51:48Z</time>
      </trkpt>
      <trkpt lat="43.14809" lon="5.71473">
        <ele>34.26416015625</ele>
        <time>2011-03-06T10:51:52Z</time>
      </trkpt>
      <trkpt lat="43.14839" lon="5.71504">
        <ele>33.302856445312</ele>
        <time>2011-03-06T10:51:58Z</time>
      </trkpt>
      <trkpt lat="43.14846" lon="5.71528">
        <ele>33.302856445312</ele>
        <time>2011-03-06T10:52:07Z</time>
      </trkpt>
      <trkpt lat="43.14846" lon="5.71528">
        <ele>33.302856445312</ele>
        <time>2011-03-06T10:52:08Z</time>
      </trkpt>
      <trkpt lat="43.14853" lon="5.71517">
        <ele>31.380126953125</ele>
        <time>2011-03-06T10:52:13Z</time>
      </trkpt>
      <trkpt lat="43.1486" lon="5.71489">
        <ele>26.092895507812</ele>
        <time>2011-03-06T10:52:18Z</time>
      </trkpt>
      <trkpt lat="43.14863" lon="5.71475">
        <ele>22.24755859375</ele>
        <time>2011-03-06T10:52:20Z</time>
      </trkpt>
      <trkpt lat="43.1486" lon="5.71443">
        <ele>17.441162109375</ele>
        <time>2011-03-06T10:52:24Z</time>
      </trkpt>
      <trkpt lat="43.14854" lon="5.71411">
        <ele>12.634399414062</ele>
        <time>2011-03-06T10:52:27Z</time>
      </trkpt>
      <trkpt lat="43.14848" lon="5.71383">
        <ele>9.2698974609375</ele>
        <time>2011-03-06T10:52:30Z</time>
      </trkpt>
      <trkpt lat="43.14845" lon="5.71363">
        <ele>7.827880859375</ele>
        <time>2011-03-06T10:52:32Z</time>
      </trkpt>
      <trkpt lat="43.14846" lon="5.71348">
        <ele>7.34716796875</ele>
        <time>2011-03-06T10:52:34Z</time>
      </trkpt>
      <trkpt lat="43.14854" lon="5.71332">
        <ele>5.424560546875</ele>
        <time>2011-03-06T10:52:38Z</time>
      </trkpt>
      <trkpt lat="43.14861" lon="5.71326">
        <ele>5.424560546875</ele>
        <time>2011-03-06T10:52:40Z</time>
      </trkpt>
      <trkpt lat="43.14872" lon="5.71317">
        <ele>5.424560546875</ele>
        <time>2011-03-06T10:52:45Z</time>
      </trkpt>
      <trkpt lat="43.1489" lon="5.71267">
        <ele>4.4632568359375</ele>
        <time>2011-03-06T10:52:57Z</time>
      </trkpt>
      <trkpt lat="43.14899" lon="5.71216">
        <ele>3.021240234375</ele>
        <time>2011-03-06T10:53:07Z</time>
      </trkpt>
      <trkpt lat="43.14897" lon="5.7118">
        <ele>2.06005859375</ele>
        <time>2011-03-06T10:53:13Z</time>
      </trkpt>
      <trkpt lat="43.14894" lon="5.71162">
        <ele>2.5406494140625</ele>
        <time>2011-03-06T10:53:16Z</time>
      </trkpt>
      <trkpt lat="43.14903" lon="5.71128">
        <ele>5.424560546875</ele>
        <time>2011-03-06T10:53:27Z</time>
      </trkpt>
      <trkpt lat="43.14908" lon="5.71095">
        <ele>8.7891845703125</ele>
        <time>2011-03-06T10:53:40Z</time>
      </trkpt>
      <trkpt lat="43.1491" lon="5.71088">
        <ele>9.2698974609375</ele>
        <time>2011-03-06T10:53:43Z</time>
      </trkpt>
      <trkpt lat="43.14914" lon="5.71073">
        <ele>11.192504882812</ele>
        <time>2011-03-06T10:53:50Z</time>
      </trkpt>
      <trkpt lat="43.1491" lon="5.71077">
        <ele>10.231201171875</ele>
        <time>2011-03-06T10:53:55Z</time>
      </trkpt>
      <trkpt lat="43.14908" lon="5.7108">
        <ele>10.231201171875</ele>
        <time>2011-03-06T10:54:18Z</time>
      </trkpt>
      <trkpt lat="43.14903" lon="5.71103">
        <ele>6.3858642578125</ele>
        <time>2011-03-06T10:54:23Z</time>
      </trkpt>
      <trkpt lat="43.14897" lon="5.7113">
        <ele>2.5406494140625</ele>
        <time>2011-03-06T10:54:26Z</time>
      </trkpt>
      <trkpt lat="43.14894" lon="5.7114">
        <ele>2.5406494140625</ele>
        <time>2011-03-06T10:54:27Z</time>
      </trkpt>
      <trkpt lat="43.14895" lon="5.71183">
        <ele>2.5406494140625</ele>
        <time>2011-03-06T10:54:32Z</time>
      </trkpt>
      <trkpt lat="43.14899" lon="5.71221">
        <ele>3.982666015625</ele>
        <time>2011-03-06T10:54:38Z</time>
      </trkpt>
      <trkpt lat="43.14888" lon="5.71264">
        <ele>4.94384765625</ele>
        <time>2011-03-06T10:54:46Z</time>
      </trkpt>
      <trkpt lat="43.14873" lon="5.71325">
        <ele>5.424560546875</ele>
        <time>2011-03-06T10:54:57Z</time>
      </trkpt>
      <trkpt lat="43.14868" lon="5.71353">
        <ele>6.3858642578125</ele>
        <time>2011-03-06T10:55:04Z</time>
      </trkpt>
      <trkpt lat="43.14873" lon="5.71367">
        <ele>6.866455078125</ele>
        <time>2011-03-06T10:55:08Z</time>
      </trkpt>
      <trkpt lat="43.14888" lon="5.71387">
        <ele>7.827880859375</ele>
        <time>2011-03-06T10:55:19Z</time>
      </trkpt>
      <trkpt lat="43.14887" lon="5.7139">
        <ele>7.827880859375</ele>
        <time>2011-03-06T10:55:23Z</time>
      </trkpt>
      <trkpt lat="43.14886" lon="5.71393">
        <ele>7.827880859375</ele>
        <time>2011-03-06T10:55:25Z</time>
      </trkpt>
      <trkpt lat="43.14886" lon="5.71394">
        <ele>8.30859375</ele>
        <time>2011-03-06T10:55:33Z</time>
      </trkpt>
      <trkpt lat="43.14892" lon="5.71401">
        <ele>8.30859375</ele>
        <time>2011-03-06T10:55:37Z</time>
      </trkpt>
      <trkpt lat="43.14895" lon="5.71406">
        <ele>7.827880859375</ele>
        <time>2011-03-06T10:55:48Z</time>
      </trkpt>
      <trkpt lat="43.14893" lon="5.71403">
        <ele>7.827880859375</ele>
        <time>2011-03-06T10:55:50Z</time>
      </trkpt>
      <trkpt lat="43.14888" lon="5.71389">
        <ele>7.34716796875</ele>
        <time>2011-03-06T10:56:01Z</time>
      </trkpt>
      <trkpt lat="43.14886" lon="5.71385">
        <ele>7.34716796875</ele>
        <time>2011-03-06T10:56:04Z</time>
      </trkpt>
      <trkpt lat="43.14888" lon="5.71382">
        <ele>6.3858642578125</ele>
        <time>2011-03-06T10:56:12Z</time>
      </trkpt>
      <trkpt lat="43.14899" lon="5.71395">
        <ele>7.827880859375</ele>
        <time>2011-03-06T10:56:26Z</time>
      </trkpt>
      <trkpt lat="43.1491" lon="5.71408">
        <ele>7.34716796875</ele>
        <time>2011-03-06T10:56:42Z</time>
      </trkpt>
      <trkpt lat="43.14913" lon="5.71412">
        <ele>7.34716796875</ele>
        <time>2011-03-06T10:56:45Z</time>
      </trkpt>
      <trkpt lat="43.1492" lon="5.71408">
        <ele>7.34716796875</ele>
        <time>2011-03-06T10:56:51Z</time>
      </trkpt>
      <trkpt lat="43.14929" lon="5.71404">
        <ele>7.34716796875</ele>
        <time>2011-03-06T10:56:59Z</time>
      </trkpt>
      <trkpt lat="43.14937" lon="5.71419">
        <ele>7.34716796875</ele>
        <time>2011-03-06T10:57:10Z</time>
      </trkpt>
      <trkpt lat="43.14969" lon="5.71459">
        <ele>9.7506103515625</ele>
        <time>2011-03-06T10:57:29Z</time>
      </trkpt>
      <trkpt lat="43.14999" lon="5.71471">
        <ele>11.192504882812</ele>
        <time>2011-03-06T10:57:44Z</time>
      </trkpt>
      <trkpt lat="43.15045" lon="5.71465">
        <ele>12.634399414062</ele>
        <time>2011-03-06T10:58:02Z</time>
      </trkpt>
      <trkpt lat="43.15063" lon="5.71465">
        <ele>13.115112304688</ele>
        <time>2011-03-06T10:58:09Z</time>
      </trkpt>
      <trkpt lat="43.15093" lon="5.71468">
        <ele>12.634399414062</ele>
        <time>2011-03-06T10:58:20Z</time>
      </trkpt>
      <trkpt lat="43.15131" lon="5.71475">
        <ele>13.595825195312</ele>
        <time>2011-03-06T10:58:34Z</time>
      </trkpt>
      <trkpt lat="43.15134" lon="5.71475">
        <ele>13.595825195312</ele>
        <time>2011-03-06T10:58:51Z</time>
      </trkpt>
      <trkpt lat="43.15135" lon="5.71476">
        <ele>13.595825195312</ele>
        <time>2011-03-06T10:59:31Z</time>
      </trkpt>
      <trkpt lat="43.15172" lon="5.71502">
        <ele>14.557006835938</ele>
        <time>2011-03-06T10:59:48Z</time>
      </trkpt>
      <trkpt lat="43.15203" lon="5.71507">
        <ele>15.9990234375</ele>
        <time>2011-03-06T11:00:02Z</time>
      </trkpt>
      <trkpt lat="43.15249" lon="5.71499">
        <ele>18.40234375</ele>
        <time>2011-03-06T11:00:22Z</time>
      </trkpt>
      <trkpt lat="43.15275" lon="5.71488">
        <ele>19.36376953125</ele>
        <time>2011-03-06T11:00:35Z</time>
      </trkpt>
      <trkpt lat="43.15299" lon="5.7146">
        <ele>19.844360351562</ele>
        <time>2011-03-06T11:00:47Z</time>
      </trkpt>
      <trkpt lat="43.15334" lon="5.7145">
        <ele>20.8056640625</ele>
        <time>2011-03-06T11:01:00Z</time>
      </trkpt>
      <trkpt lat="43.15382" lon="5.71442">
        <ele>20.8056640625</ele>
        <time>2011-03-06T11:01:14Z</time>
      </trkpt>
      <trkpt lat="43.15439" lon="5.7145">
        <ele>22.24755859375</ele>
        <time>2011-03-06T11:01:32Z</time>
      </trkpt>
      <trkpt lat="43.15499" lon="5.71456">
        <ele>22.728271484375</ele>
        <time>2011-03-06T11:01:51Z</time>
      </trkpt>
      <trkpt lat="43.1557" lon="5.71458">
        <ele>24.170288085938</ele>
        <time>2011-03-06T11:02:13Z</time>
      </trkpt>
      <trkpt lat="43.15642" lon="5.71466">
        <ele>27.534912109375</ele>
        <time>2011-03-06T11:02:36Z</time>
      </trkpt>
      <trkpt lat="43.15656" lon="5.71474">
        <ele>28.015502929688</ele>
        <time>2011-03-06T11:02:43Z</time>
      </trkpt>
      <trkpt lat="43.15666" lon="5.71468">
        <ele>28.976928710938</ele>
        <time>2011-03-06T11:02:49Z</time>
      </trkpt>
      <trkpt lat="43.15678" lon="5.71433">
        <ele>31.860717773438</ele>
        <time>2011-03-06T11:03:03Z</time>
      </trkpt>
      <trkpt lat="43.15686" lon="5.71413">
        <ele>34.744873046875</ele>
        <time>2011-03-06T11:03:15Z</time>
      </trkpt>
      <trkpt lat="43.15695" lon="5.71371">
        <ele>38.109375</ele>
        <time>2011-03-06T11:03:36Z</time>
      </trkpt>
      <trkpt lat="43.15701" lon="5.71332">
        <ele>40.032104492188</ele>
        <time>2011-03-06T11:03:53Z</time>
      </trkpt>
      <trkpt lat="43.15705" lon="5.71283">
        <ele>40.512817382812</ele>
        <time>2011-03-06T11:04:09Z</time>
      </trkpt>
      <trkpt lat="43.15705" lon="5.71232">
        <ele>39.55126953125</ele>
        <time>2011-03-06T11:04:23Z</time>
      </trkpt>
      <trkpt lat="43.15709" lon="5.71191">
        <ele>38.590087890625</ele>
        <time>2011-03-06T11:04:31Z</time>
      </trkpt>
      <trkpt lat="43.15713" lon="5.71159">
        <ele>36.66748046875</ele>
        <time>2011-03-06T11:04:36Z</time>
      </trkpt>
      <trkpt lat="43.15723" lon="5.71115">
        <ele>37.148071289062</ele>
        <time>2011-03-06T11:04:43Z</time>
      </trkpt>
      <trkpt lat="43.15741" lon="5.71002">
        <ele>35.7060546875</ele>
        <time>2011-03-06T11:05:01Z</time>
      </trkpt>
      <trkpt lat="43.15771" lon="5.70962">
        <ele>37.148071289062</ele>
        <time>2011-03-06T11:05:14Z</time>
      </trkpt>
      <trkpt lat="43.15795" lon="5.70944">
        <ele>40.032104492188</ele>
        <time>2011-03-06T11:05:26Z</time>
      </trkpt>
      <trkpt lat="43.15797" lon="5.70943">
        <ele>40.032104492188</ele>
        <time>2011-03-06T11:05:27Z</time>
      </trkpt>
      <trkpt lat="43.15794" lon="5.70944">
        <ele>39.070678710938</ele>
        <time>2011-03-06T11:05:34Z</time>
      </trkpt>
      <trkpt lat="43.15784" lon="5.70946">
        <ele>38.590087890625</ele>
        <time>2011-03-06T11:05:38Z</time>
      </trkpt>
      <trkpt lat="43.15781" lon="5.70943">
        <ele>39.070678710938</ele>
        <time>2011-03-06T11:05:41Z</time>
      </trkpt>
      <trkpt lat="43.15783" lon="5.70938">
        <ele>39.070678710938</ele>
        <time>2011-03-06T11:05:44Z</time>
      </trkpt>
      <trkpt lat="43.15788" lon="5.7093">
        <ele>39.070678710938</ele>
        <time>2011-03-06T11:05:48Z</time>
      </trkpt>
      <trkpt lat="43.15794" lon="5.7092">
        <ele>39.55126953125</ele>
        <time>2011-03-06T11:05:52Z</time>
      </trkpt>
      <trkpt lat="43.15798" lon="5.70913">
        <ele>40.032104492188</ele>
        <time>2011-03-06T11:05:56Z</time>
      </trkpt>
      <trkpt lat="43.15801" lon="5.70909">
        <ele>40.512817382812</ele>
        <time>2011-03-06T11:05:58Z</time>
      </trkpt>
      <trkpt lat="43.15806" lon="5.709">
        <ele>40.993408203125</ele>
        <time>2011-03-06T11:06:02Z</time>
      </trkpt>
      <trkpt lat="43.15822" lon="5.70861">
        <ele>42.916015625</ele>
        <time>2011-03-06T11:06:16Z</time>
      </trkpt>
      <trkpt lat="43.15836" lon="5.70825">
        <ele>44.838623046875</ele>
        <time>2011-03-06T11:06:29Z</time>
      </trkpt>
      <trkpt lat="43.15846" lon="5.70802">
        <ele>45.799926757812</ele>
        <time>2011-03-06T11:06:39Z</time>
      </trkpt>
      <trkpt lat="43.1585" lon="5.70796">
        <ele>45.799926757812</ele>
        <time>2011-03-06T11:06:42Z</time>
      </trkpt>
      <trkpt lat="43.15869" lon="5.70768">
        <ele>47.241821289062</ele>
        <time>2011-03-06T11:06:55Z</time>
      </trkpt>
      <trkpt lat="43.15877" lon="5.70774">
        <ele>47.722534179688</ele>
        <time>2011-03-06T11:07:01Z</time>
      </trkpt>
      <trkpt lat="43.15879" lon="5.70782">
        <ele>48.683959960938</ele>
        <time>2011-03-06T11:07:04Z</time>
      </trkpt>
      <trkpt lat="43.15887" lon="5.70785">
        <ele>50.606567382812</ele>
        <time>2011-03-06T11:07:14Z</time>
      </trkpt>
      <trkpt lat="43.15898" lon="5.70787">
        <ele>53.490478515625</ele>
        <time>2011-03-06T11:07:29Z</time>
      </trkpt>
      <trkpt lat="43.15901" lon="5.70782">
        <ele>53.97119140625</ele>
        <time>2011-03-06T11:07:41Z</time>
      </trkpt>
      <trkpt lat="43.15902" lon="5.70774">
        <ele>54.451782226562</ele>
        <time>2011-03-06T11:07:46Z</time>
      </trkpt>
      <trkpt lat="43.15914" lon="5.70741">
        <ele>53.97119140625</ele>
        <time>2011-03-06T11:07:59Z</time>
      </trkpt>
      <trkpt lat="43.15929" lon="5.70725">
        <ele>56.855102539062</ele>
        <time>2011-03-06T11:08:09Z</time>
      </trkpt>
      <trkpt lat="43.15951" lon="5.70688">
        <ele>57.816528320312</ele>
        <time>2011-03-06T11:08:27Z</time>
      </trkpt>
      <trkpt lat="43.15954" lon="5.70686">
        <ele>58.297119140625</ele>
        <time>2011-03-06T11:08:29Z</time>
      </trkpt>
      <trkpt lat="43.15956" lon="5.70685">
        <ele>58.777709960938</ele>
        <time>2011-03-06T11:08:31Z</time>
      </trkpt>
      <trkpt lat="43.15959" lon="5.70685">
        <ele>58.777709960938</ele>
        <time>2011-03-06T11:08:33Z</time>
      </trkpt>
      <trkpt lat="43.15965" lon="5.70683">
        <ele>60.2197265625</ele>
        <time>2011-03-06T11:08:37Z</time>
      </trkpt>
      <trkpt lat="43.15971" lon="5.70681">
        <ele>60.700317382812</ele>
        <time>2011-03-06T11:08:40Z</time>
      </trkpt>
      <trkpt lat="43.15983" lon="5.70686">
        <ele>63.584350585938</ele>
        <time>2011-03-06T11:08:46Z</time>
      </trkpt>
      <trkpt lat="43.16004" lon="5.70673">
        <ele>65.0263671875</ele>
        <time>2011-03-06T11:09:02Z</time>
      </trkpt>
      <trkpt lat="43.16015" lon="5.70641">
        <ele>65.987670898438</ele>
        <time>2011-03-06T11:09:18Z</time>
      </trkpt>
      <trkpt lat="43.16017" lon="5.70567">
        <ele>65.507080078125</ele>
        <time>2011-03-06T11:09:39Z</time>
      </trkpt>
      <trkpt lat="43.16019" lon="5.70484">
        <ele>65.507080078125</ele>
        <time>2011-03-06T11:09:59Z</time>
      </trkpt>
      <trkpt lat="43.16022" lon="5.70424">
        <ele>65.987670898438</ele>
        <time>2011-03-06T11:10:14Z</time>
      </trkpt>
      <trkpt lat="43.16019" lon="5.70415">
        <ele>65.987670898438</ele>
        <time>2011-03-06T11:10:18Z</time>
      </trkpt>
      <trkpt lat="43.16014" lon="5.70408">
        <ele>65.987670898438</ele>
        <time>2011-03-06T11:10:31Z</time>
      </trkpt>
      <trkpt lat="43.16" lon="5.70387">
        <ele>65.507080078125</ele>
        <time>2011-03-06T11:10:39Z</time>
      </trkpt>
      <trkpt lat="43.16002" lon="5.70397">
        <ele>65.987670898438</ele>
        <time>2011-03-06T11:10:45Z</time>
      </trkpt>
      <trkpt lat="43.16029" lon="5.70416">
        <ele>66.46826171875</ele>
        <time>2011-03-06T11:10:56Z</time>
      </trkpt>
      <trkpt lat="43.16033" lon="5.70409">
        <ele>66.948974609375</ele>
        <time>2011-03-06T11:11:05Z</time>
      </trkpt>
      <trkpt lat="43.16034" lon="5.7041">
        <ele>67.4296875</ele>
        <time>2011-03-06T11:11:07Z</time>
      </trkpt>
      <trkpt lat="43.16041" lon="5.70407">
        <ele>67.4296875</ele>
        <time>2011-03-06T11:11:17Z</time>
      </trkpt>
      <trkpt lat="43.16041" lon="5.70406">
        <ele>67.4296875</ele>
        <time>2011-03-06T11:11:21Z</time>
      </trkpt>
      <trkpt lat="43.16035" lon="5.704">
        <ele>66.46826171875</ele>
        <time>2011-03-06T11:11:25Z</time>
      </trkpt>
      <trkpt lat="43.16013" lon="5.70392">
        <ele>65.0263671875</ele>
        <time>2011-03-06T11:11:32Z</time>
      </trkpt>
      <trkpt lat="43.16006" lon="5.70377">
        <ele>65.0263671875</ele>
        <time>2011-03-06T11:11:36Z</time>
      </trkpt>
      <trkpt lat="43.16007" lon="5.70326">
        <ele>64.065063476562</ele>
        <time>2011-03-06T11:11:48Z</time>
      </trkpt>
      <trkpt lat="43.16007" lon="5.70301">
        <ele>63.584350585938</ele>
        <time>2011-03-06T11:11:52Z</time>
      </trkpt>
      <trkpt lat="43.16013" lon="5.70251">
        <ele>60.700317382812</ele>
        <time>2011-03-06T11:12:02Z</time>
      </trkpt>
      <trkpt lat="43.1601" lon="5.70227">
        <ele>59.739135742188</ele>
        <time>2011-03-06T11:12:06Z</time>
      </trkpt>
      <trkpt lat="43.16024" lon="5.70208">
        <ele>58.297119140625</ele>
        <time>2011-03-06T11:12:10Z</time>
      </trkpt>
      <trkpt lat="43.16037" lon="5.70175">
        <ele>54.932373046875</ele>
        <time>2011-03-06T11:12:15Z</time>
      </trkpt>
      <trkpt lat="43.16045" lon="5.70138">
        <ele>53.490478515625</ele>
        <time>2011-03-06T11:12:20Z</time>
      </trkpt>
      <trkpt lat="43.16052" lon="5.70109">
        <ele>52.048583984375</ele>
        <time>2011-03-06T11:12:24Z</time>
      </trkpt>
      <trkpt lat="43.16067" lon="5.7007">
        <ele>49.16455078125</ele>
        <time>2011-03-06T11:12:29Z</time>
      </trkpt>
      <trkpt lat="43.1607" lon="5.70063">
        <ele>49.16455078125</ele>
        <time>2011-03-06T11:12:30Z</time>
      </trkpt>
      <trkpt lat="43.16084" lon="5.70008">
        <ele>46.280639648438</ele>
        <time>2011-03-06T11:12:38Z</time>
      </trkpt>
      <trkpt lat="43.16087" lon="5.70001">
        <ele>45.799926757812</ele>
        <time>2011-03-06T11:12:39Z</time>
      </trkpt>
      <trkpt lat="43.16099" lon="5.69961">
        <ele>43.877319335938</ele>
        <time>2011-03-06T11:12:44Z</time>
      </trkpt>
      <trkpt lat="43.16102" lon="5.69953">
        <ele>43.396606445312</ele>
        <time>2011-03-06T11:12:45Z</time>
      </trkpt>
      <trkpt lat="43.16111" lon="5.69931">
        <ele>43.396606445312</ele>
        <time>2011-03-06T11:12:48Z</time>
      </trkpt>
      <trkpt lat="43.1612" lon="5.69913">
        <ele>42.435424804688</ele>
        <time>2011-03-06T11:12:51Z</time>
      </trkpt>
      <trkpt lat="43.16124" lon="5.69892">
        <ele>39.55126953125</ele>
        <time>2011-03-06T11:12:54Z</time>
      </trkpt>
      <trkpt lat="43.16126" lon="5.69879">
        <ele>38.590087890625</ele>
        <time>2011-03-06T11:12:56Z</time>
      </trkpt>
      <trkpt lat="43.16126" lon="5.69855">
        <ele>37.148071289062</ele>
        <time>2011-03-06T11:12:59Z</time>
      </trkpt>
      <trkpt lat="43.16115" lon="5.69805">
        <ele>37.628662109375</ele>
        <time>2011-03-06T11:13:10Z</time>
      </trkpt>
      <trkpt lat="43.16116" lon="5.69805">
        <ele>37.148071289062</ele>
        <time>2011-03-06T11:13:16Z</time>
      </trkpt>
      <trkpt lat="43.16127" lon="5.69827">
        <ele>36.186767578125</ele>
        <time>2011-03-06T11:13:25Z</time>
      </trkpt>
      <trkpt lat="43.16132" lon="5.69828">
        <ele>37.148071289062</ele>
        <time>2011-03-06T11:13:31Z</time>
      </trkpt>
      <trkpt lat="43.1613" lon="5.69834">
        <ele>37.148071289062</ele>
        <time>2011-03-06T11:13:38Z</time>
      </trkpt>
      <trkpt lat="43.16132" lon="5.69841">
        <ele>38.109375</ele>
        <time>2011-03-06T11:13:48Z</time>
      </trkpt>
      <trkpt lat="43.16134" lon="5.69853">
        <ele>38.109375</ele>
        <time>2011-03-06T11:13:54Z</time>
      </trkpt>
      <trkpt lat="43.16135" lon="5.69859">
        <ele>38.590087890625</ele>
        <time>2011-03-06T11:13:56Z</time>
      </trkpt>
      <trkpt lat="43.16134" lon="5.69873">
        <ele>39.55126953125</ele>
        <time>2011-03-06T11:14:09Z</time>
      </trkpt>
      <trkpt lat="43.16134" lon="5.6987">
        <ele>39.070678710938</ele>
        <time>2011-03-06T11:14:13Z</time>
      </trkpt>
      <trkpt lat="43.16135" lon="5.69851">
        <ele>38.109375</ele>
        <time>2011-03-06T11:14:20Z</time>
      </trkpt>
      <trkpt lat="43.16133" lon="5.69839">
        <ele>38.109375</ele>
        <time>2011-03-06T11:14:30Z</time>
      </trkpt>
      <trkpt lat="43.16141" lon="5.69842">
        <ele>41.473999023438</ele>
        <time>2011-03-06T11:14:43Z</time>
      </trkpt>
      <trkpt lat="43.16142" lon="5.69842">
        <ele>41.954711914062</ele>
        <time>2011-03-06T11:14:44Z</time>
      </trkpt>
      <trkpt lat="43.16149" lon="5.69841">
        <ele>44.838623046875</ele>
        <time>2011-03-06T11:14:57Z</time>
      </trkpt>
      <trkpt lat="43.16152" lon="5.69843">
        <ele>46.280639648438</ele>
        <time>2011-03-06T11:15:06Z</time>
      </trkpt>
      <trkpt lat="43.16158" lon="5.6985">
        <ele>48.203369140625</ele>
        <time>2011-03-06T11:15:20Z</time>
      </trkpt>
      <trkpt lat="43.16163" lon="5.69857">
        <ele>51.56787109375</ele>
        <time>2011-03-06T11:15:32Z</time>
      </trkpt>
      <trkpt lat="43.16166" lon="5.69861">
        <ele>53.009765625</ele>
        <time>2011-03-06T11:15:49Z</time>
      </trkpt>
      <trkpt lat="43.16175" lon="5.69874">
        <ele>55.893798828125</ele>
        <time>2011-03-06T11:16:06Z</time>
      </trkpt>
      <trkpt lat="43.16174" lon="5.69876">
        <ele>56.37451171875</ele>
        <time>2011-03-06T11:16:28Z</time>
      </trkpt>
      <trkpt lat="43.16179" lon="5.69882">
        <ele>58.297119140625</ele>
        <time>2011-03-06T11:16:53Z</time>
      </trkpt>
      <trkpt lat="43.16185" lon="5.69883">
        <ele>61.181030273438</ele>
        <time>2011-03-06T11:17:05Z</time>
      </trkpt>
      <trkpt lat="43.16192" lon="5.69889">
        <ele>62.622924804688</ele>
        <time>2011-03-06T11:17:20Z</time>
      </trkpt>
      <trkpt lat="43.16195" lon="5.69891">
        <ele>62.622924804688</ele>
        <time>2011-03-06T11:18:01Z</time>
      </trkpt>
      <trkpt lat="43.16197" lon="5.69899">
        <ele>62.622924804688</ele>
        <time>2011-03-06T11:18:05Z</time>
      </trkpt>
      <trkpt lat="43.16195" lon="5.69906">
        <ele>62.622924804688</ele>
        <time>2011-03-06T11:18:08Z</time>
      </trkpt>
      <trkpt lat="43.16196" lon="5.69913">
        <ele>62.622924804688</ele>
        <time>2011-03-06T11:18:21Z</time>
      </trkpt>
      <trkpt lat="43.16194" lon="5.69912">
        <ele>62.622924804688</ele>
        <time>2011-03-06T11:18:25Z</time>
      </trkpt>
      <trkpt lat="43.16193" lon="5.6991">
        <ele>62.622924804688</ele>
        <time>2011-03-06T11:18:27Z</time>
      </trkpt>
      <trkpt lat="43.16202" lon="5.69908">
        <ele>65.507080078125</ele>
        <time>2011-03-06T11:18:41Z</time>
      </trkpt>
      <trkpt lat="43.16206" lon="5.69908">
        <ele>65.987670898438</ele>
        <time>2011-03-06T11:18:45Z</time>
      </trkpt>
      <trkpt lat="43.16215" lon="5.69918">
        <ele>69.832885742188</ele>
        <time>2011-03-06T11:18:59Z</time>
      </trkpt>
      <trkpt lat="43.16225" lon="5.69933">
        <ele>72.716918945312</ele>
        <time>2011-03-06T11:19:16Z</time>
      </trkpt>
      <trkpt lat="43.16233" lon="5.69938">
        <ele>75.600830078125</ele>
        <time>2011-03-06T11:19:34Z</time>
      </trkpt>
      <trkpt lat="43.1624" lon="5.69942">
        <ele>76.562133789062</ele>
        <time>2011-03-06T11:19:48Z</time>
      </trkpt>
      <trkpt lat="43.16252" lon="5.69959">
        <ele>78.484741210938</ele>
        <time>2011-03-06T11:20:01Z</time>
      </trkpt>
      <trkpt lat="43.1626" lon="5.69971">
        <ele>79.926635742188</ele>
        <time>2011-03-06T11:20:09Z</time>
      </trkpt>
      <trkpt lat="43.16274" lon="5.69982">
        <ele>83.291381835938</ele>
        <time>2011-03-06T11:20:23Z</time>
      </trkpt>
      <trkpt lat="43.16283" lon="5.69985">
        <ele>85.213989257812</ele>
        <time>2011-03-06T11:20:39Z</time>
      </trkpt>
      <trkpt lat="43.16293" lon="5.69995">
        <ele>86.656005859375</ele>
        <time>2011-03-06T11:20:48Z</time>
      </trkpt>
      <trkpt lat="43.16303" lon="5.7002">
        <ele>87.6171875</ele>
        <time>2011-03-06T11:21:04Z</time>
      </trkpt>
      <trkpt lat="43.16305" lon="5.70022">
        <ele>87.6171875</ele>
        <time>2011-03-06T11:21:05Z</time>
      </trkpt>
      <trkpt lat="43.16313" lon="5.70027">
        <ele>87.136596679688</ele>
        <time>2011-03-06T11:21:08Z</time>
      </trkpt>
      <trkpt lat="43.16316" lon="5.70035">
        <ele>88.098022460938</ele>
        <time>2011-03-06T11:21:13Z</time>
      </trkpt>
      <trkpt lat="43.16311" lon="5.70039">
        <ele>88.578735351562</ele>
        <time>2011-03-06T11:21:32Z</time>
      </trkpt>
      <trkpt lat="43.1631" lon="5.70037">
        <ele>88.578735351562</ele>
        <time>2011-03-06T11:22:34Z</time>
      </trkpt>
      <trkpt lat="43.1631" lon="5.70037">
        <ele>88.578735351562</ele>
        <time>2011-03-06T11:24:48Z</time>
      </trkpt>
      <trkpt lat="43.16311" lon="5.70038">
        <ele>88.578735351562</ele>
        <time>2011-03-06T11:24:51Z</time>
      </trkpt>
      <trkpt lat="43.16314" lon="5.70038">
        <ele>88.578735351562</ele>
        <time>2011-03-06T11:24:55Z</time>
      </trkpt>
      <trkpt lat="43.16319" lon="5.70029">
        <ele>87.6171875</ele>
        <time>2011-03-06T11:25:00Z</time>
      </trkpt>
      <trkpt lat="43.16328" lon="5.7003">
        <ele>88.578735351562</ele>
        <time>2011-03-06T11:25:06Z</time>
      </trkpt>
      <trkpt lat="43.1636" lon="5.70012">
        <ele>88.578735351562</ele>
        <time>2011-03-06T11:25:22Z</time>
      </trkpt>
      <trkpt lat="43.16394" lon="5.70004">
        <ele>90.501342773438</ele>
        <time>2011-03-06T11:25:37Z</time>
      </trkpt>
      <trkpt lat="43.16435" lon="5.70002">
        <ele>88.578735351562</ele>
        <time>2011-03-06T11:25:53Z</time>
      </trkpt>
      <trkpt lat="43.16446" lon="5.70007">
        <ele>88.098022460938</ele>
        <time>2011-03-06T11:25:58Z</time>
      </trkpt>
      <trkpt lat="43.16474" lon="5.7004">
        <ele>87.136596679688</ele>
        <time>2011-03-06T11:26:09Z</time>
      </trkpt>
      <trkpt lat="43.165" lon="5.70058">
        <ele>85.213989257812</ele>
        <time>2011-03-06T11:26:15Z</time>
      </trkpt>
      <trkpt lat="43.16534" lon="5.70081">
        <ele>81.849365234375</ele>
        <time>2011-03-06T11:26:21Z</time>
      </trkpt>
      <trkpt lat="43.1654" lon="5.70085">
        <ele>81.368774414062</ele>
        <time>2011-03-06T11:26:22Z</time>
      </trkpt>
      <trkpt lat="43.16584" lon="5.70125">
        <ele>78.965454101562</ele>
        <time>2011-03-06T11:26:29Z</time>
      </trkpt>
      <trkpt lat="43.16601" lon="5.70138">
        <ele>76.562133789062</ele>
        <time>2011-03-06T11:26:32Z</time>
      </trkpt>
      <trkpt lat="43.16631" lon="5.70162">
        <ele>79.446044921875</ele>
        <time>2011-03-06T11:26:38Z</time>
      </trkpt>
      <trkpt lat="43.16638" lon="5.70176">
        <ele>82.330078125</ele>
        <time>2011-03-06T11:26:42Z</time>
      </trkpt>
      <trkpt lat="43.16644" lon="5.70187">
        <ele>84.7333984375</ele>
        <time>2011-03-06T11:26:47Z</time>
      </trkpt>
      <trkpt lat="43.16649" lon="5.70215">
        <ele>88.098022460938</ele>
        <time>2011-03-06T11:27:00Z</time>
      </trkpt>
      <trkpt lat="43.16652" lon="5.7024">
        <ele>90.98193359375</ele>
        <time>2011-03-06T11:27:12Z</time>
      </trkpt>
      <trkpt lat="43.16651" lon="5.70245">
        <ele>91.462524414062</ele>
        <time>2011-03-06T11:27:15Z</time>
      </trkpt>
      <trkpt lat="43.16654" lon="5.70263">
        <ele>92.904541015625</ele>
        <time>2011-03-06T11:27:26Z</time>
      </trkpt>
      <trkpt lat="43.16665" lon="5.7029">
        <ele>92.904541015625</ele>
        <time>2011-03-06T11:27:37Z</time>
      </trkpt>
      <trkpt lat="43.1668" lon="5.70316">
        <ele>95.307739257812</ele>
        <time>2011-03-06T11:27:49Z</time>
      </trkpt>
      <trkpt lat="43.16682" lon="5.7032">
        <ele>95.788452148438</ele>
        <time>2011-03-06T11:27:52Z</time>
      </trkpt>
      <trkpt lat="43.16683" lon="5.70323">
        <ele>96.269287109375</ele>
        <time>2011-03-06T11:27:54Z</time>
      </trkpt>
      <trkpt lat="43.16684" lon="5.70343">
        <ele>96.749877929688</ele>
        <time>2011-03-06T11:28:05Z</time>
      </trkpt>
      <trkpt lat="43.16703" lon="5.70372">
        <ele>93.865844726562</ele>
        <time>2011-03-06T11:28:19Z</time>
      </trkpt>
      <trkpt lat="43.16715" lon="5.70381">
        <ele>91.943237304688</ele>
        <time>2011-03-06T11:28:25Z</time>
      </trkpt>
      <trkpt lat="43.16718" lon="5.70385">
        <ele>93.865844726562</ele>
        <time>2011-03-06T11:28:28Z</time>
      </trkpt>
      <trkpt lat="43.1672" lon="5.7039">
        <ele>93.865844726562</ele>
        <time>2011-03-06T11:28:43Z</time>
      </trkpt>
      <trkpt lat="43.16718" lon="5.70406">
        <ele>96.269287109375</ele>
        <time>2011-03-06T11:28:55Z</time>
      </trkpt>
      <trkpt lat="43.16718" lon="5.70409">
        <ele>96.269287109375</ele>
        <time>2011-03-06T11:28:59Z</time>
      </trkpt>
      <trkpt lat="43.16718" lon="5.70412">
        <ele>96.749877929688</ele>
        <time>2011-03-06T11:29:01Z</time>
      </trkpt>
      <trkpt lat="43.16709" lon="5.70424">
        <ele>99.153076171875</ele>
        <time>2011-03-06T11:29:15Z</time>
      </trkpt>
      <trkpt lat="43.16706" lon="5.70424">
        <ele>99.6337890625</ele>
        <time>2011-03-06T11:29:28Z</time>
      </trkpt>
      <trkpt lat="43.16695" lon="5.70418">
        <ele>101.07568359375</ele>
        <time>2011-03-06T11:29:42Z</time>
      </trkpt>
      <trkpt lat="43.16693" lon="5.70418">
        <ele>101.55639648438</ele>
        <time>2011-03-06T11:29:43Z</time>
      </trkpt>
      <trkpt lat="43.16683" lon="5.70415">
        <ele>103.47900390625</ele>
        <time>2011-03-06T11:29:55Z</time>
      </trkpt>
      <trkpt lat="43.16676" lon="5.70422">
        <ele>105.40173339844</ele>
        <time>2011-03-06T11:30:08Z</time>
      </trkpt>
      <trkpt lat="43.16671" lon="5.70425">
        <ele>108.28564453125</ele>
        <time>2011-03-06T11:30:19Z</time>
      </trkpt>
      <trkpt lat="43.16664" lon="5.70431">
        <ele>110.68884277344</ele>
        <time>2011-03-06T11:30:41Z</time>
      </trkpt>
      <trkpt lat="43.16653" lon="5.70432">
        <ele>112.61157226562</ele>
        <time>2011-03-06T11:30:55Z</time>
      </trkpt>
      <trkpt lat="43.16655" lon="5.70442">
        <ele>115.01489257812</ele>
        <time>2011-03-06T11:31:11Z</time>
      </trkpt>
      <trkpt lat="43.16649" lon="5.70451">
        <ele>117.89880371094</ele>
        <time>2011-03-06T11:31:37Z</time>
      </trkpt>
      <trkpt lat="43.16648" lon="5.70455">
        <ele>120.30212402344</ele>
        <time>2011-03-06T11:31:54Z</time>
      </trkpt>
      <trkpt lat="43.16644" lon="5.70464">
        <ele>123.18615722656</ele>
        <time>2011-03-06T11:32:11Z</time>
      </trkpt>
      <trkpt lat="43.1664" lon="5.70478">
        <ele>126.55065917969</ele>
        <time>2011-03-06T11:32:34Z</time>
      </trkpt>
      <trkpt lat="43.16643" lon="5.70481">
        <ele>128.47338867188</ele>
        <time>2011-03-06T11:32:52Z</time>
      </trkpt>
      <trkpt lat="43.1664" lon="5.70493">
        <ele>131.35729980469</ele>
        <time>2011-03-06T11:33:16Z</time>
      </trkpt>
      <trkpt lat="43.16637" lon="5.705">
        <ele>134.2412109375</ele>
        <time>2011-03-06T11:33:39Z</time>
      </trkpt>
      <trkpt lat="43.16638" lon="5.70506">
        <ele>136.16394042969</ele>
        <time>2011-03-06T11:33:51Z</time>
      </trkpt>
      <trkpt lat="43.16632" lon="5.70516">
        <ele>139.52844238281</ele>
        <time>2011-03-06T11:34:04Z</time>
      </trkpt>
      <trkpt lat="43.16629" lon="5.7052">
        <ele>140.48986816406</ele>
        <time>2011-03-06T11:34:22Z</time>
      </trkpt>
      <trkpt lat="43.16627" lon="5.70524">
        <ele>141.93176269531</ele>
        <time>2011-03-06T11:34:34Z</time>
      </trkpt>
      <trkpt lat="43.16621" lon="5.70528">
        <ele>144.33520507812</ele>
        <time>2011-03-06T11:34:45Z</time>
      </trkpt>
      <trkpt lat="43.16619" lon="5.70531">
        <ele>145.29638671875</ele>
        <time>2011-03-06T11:35:06Z</time>
      </trkpt>
      <trkpt lat="43.16612" lon="5.70537">
        <ele>148.18041992188</ele>
        <time>2011-03-06T11:35:30Z</time>
      </trkpt>
      <trkpt lat="43.16607" lon="5.70538">
        <ele>150.58361816406</ele>
        <time>2011-03-06T11:35:47Z</time>
      </trkpt>
      <trkpt lat="43.16606" lon="5.70536">
        <ele>151.06420898438</ele>
        <time>2011-03-06T11:35:59Z</time>
      </trkpt>
      <trkpt lat="43.16602" lon="5.70528">
        <ele>152.02575683594</ele>
        <time>2011-03-06T11:36:03Z</time>
      </trkpt>
      <trkpt lat="43.16599" lon="5.70525">
        <ele>152.98693847656</ele>
        <time>2011-03-06T11:36:07Z</time>
      </trkpt>
      <trkpt lat="43.16598" lon="5.70519">
        <ele>152.98693847656</ele>
        <time>2011-03-06T11:36:10Z</time>
      </trkpt>
      <trkpt lat="43.16595" lon="5.70515">
        <ele>152.98693847656</ele>
        <time>2011-03-06T11:36:13Z</time>
      </trkpt>
      <trkpt lat="43.1659" lon="5.70512">
        <ele>152.50634765625</ele>
        <time>2011-03-06T11:36:16Z</time>
      </trkpt>
      <trkpt lat="43.16584" lon="5.70502">
        <ele>151.544921875</ele>
        <time>2011-03-06T11:36:20Z</time>
      </trkpt>
      <trkpt lat="43.16576" lon="5.70503">
        <ele>152.50634765625</ele>
        <time>2011-03-06T11:36:31Z</time>
      </trkpt>
      <trkpt lat="43.16569" lon="5.70513">
        <ele>154.90954589844</ele>
        <time>2011-03-06T11:36:46Z</time>
      </trkpt>
      <trkpt lat="43.16559" lon="5.70519">
        <ele>157.31286621094</ele>
        <time>2011-03-06T11:37:04Z</time>
      </trkpt>
      <trkpt lat="43.16549" lon="5.70525">
        <ele>158.75476074219</ele>
        <time>2011-03-06T11:37:22Z</time>
      </trkpt>
      <trkpt lat="43.16549" lon="5.7053">
        <ele>159.23547363281</ele>
        <time>2011-03-06T11:37:37Z</time>
      </trkpt>
      <trkpt lat="43.16548" lon="5.70533">
        <ele>159.23547363281</ele>
        <time>2011-03-06T11:38:01Z</time>
      </trkpt>
      <trkpt lat="43.1655" lon="5.70562">
        <ele>162.60009765625</ele>
        <time>2011-03-06T11:38:15Z</time>
      </trkpt>
      <trkpt lat="43.16552" lon="5.70567">
        <ele>163.5615234375</ele>
        <time>2011-03-06T11:38:17Z</time>
      </trkpt>
      <trkpt lat="43.16556" lon="5.70579">
        <ele>165.00341796875</ele>
        <time>2011-03-06T11:38:24Z</time>
      </trkpt>
      <trkpt lat="43.16559" lon="5.70593">
        <ele>166.92602539062</ele>
        <time>2011-03-06T11:38:31Z</time>
      </trkpt>
      <trkpt lat="43.16556" lon="5.70608">
        <ele>167.88732910156</ele>
        <time>2011-03-06T11:38:42Z</time>
      </trkpt>
      <trkpt lat="43.16558" lon="5.70616">
        <ele>167.88732910156</ele>
        <time>2011-03-06T11:38:46Z</time>
      </trkpt>
      <trkpt lat="43.16568" lon="5.70636">
        <ele>166.4453125</ele>
        <time>2011-03-06T11:38:52Z</time>
      </trkpt>
      <trkpt lat="43.16583" lon="5.70658">
        <ele>162.60009765625</ele>
        <time>2011-03-06T11:38:56Z</time>
      </trkpt>
      <trkpt lat="43.16612" lon="5.7068">
        <ele>159.23547363281</ele>
        <time>2011-03-06T11:39:01Z</time>
      </trkpt>
      <trkpt lat="43.16642" lon="5.70704">
        <ele>154.42895507812</ele>
        <time>2011-03-06T11:39:06Z</time>
      </trkpt>
      <trkpt lat="43.16669" lon="5.70728">
        <ele>151.06420898438</ele>
        <time>2011-03-06T11:39:10Z</time>
      </trkpt>
      <trkpt lat="43.16677" lon="5.70733">
        <ele>151.06420898438</ele>
        <time>2011-03-06T11:39:11Z</time>
      </trkpt>
      <trkpt lat="43.16694" lon="5.70751">
        <ele>149.1416015625</ele>
        <time>2011-03-06T11:39:14Z</time>
      </trkpt>
      <trkpt lat="43.1671" lon="5.70765">
        <ele>149.1416015625</ele>
        <time>2011-03-06T11:39:21Z</time>
      </trkpt>
      <trkpt lat="43.16711" lon="5.70765">
        <ele>148.66101074219</ele>
        <time>2011-03-06T11:39:26Z</time>
      </trkpt>
      <trkpt lat="43.16705" lon="5.70741">
        <ele>145.29638671875</ele>
        <time>2011-03-06T11:39:33Z</time>
      </trkpt>
      <trkpt lat="43.16692" lon="5.70711">
        <ele>143.37365722656</ele>
        <time>2011-03-06T11:39:38Z</time>
      </trkpt>
      <trkpt lat="43.16695" lon="5.70687">
        <ele>141.93176269531</ele>
        <time>2011-03-06T11:39:45Z</time>
      </trkpt>
      <trkpt lat="43.16709" lon="5.70698">
        <ele>138.56726074219</ele>
        <time>2011-03-06T11:39:48Z</time>
      </trkpt>
      <trkpt lat="43.16732" lon="5.70706">
        <ele>136.16394042969</ele>
        <time>2011-03-06T11:39:52Z</time>
      </trkpt>
      <trkpt lat="43.16744" lon="5.70729">
        <ele>132.79931640625</ele>
        <time>2011-03-06T11:39:57Z</time>
      </trkpt>
      <trkpt lat="43.16753" lon="5.70744">
        <ele>131.35729980469</ele>
        <time>2011-03-06T11:39:59Z</time>
      </trkpt>
      <trkpt lat="43.1676" lon="5.7077">
        <ele>129.91528320312</ele>
        <time>2011-03-06T11:40:02Z</time>
      </trkpt>
      <trkpt lat="43.1677" lon="5.70797">
        <ele>127.99255371094</ele>
        <time>2011-03-06T11:40:05Z</time>
      </trkpt>
      <trkpt lat="43.16793" lon="5.70816">
        <ele>127.03137207031</ele>
        <time>2011-03-06T11:40:10Z</time>
      </trkpt>
      <trkpt lat="43.16812" lon="5.70816">
        <ele>126.06994628906</ele>
        <time>2011-03-06T11:40:21Z</time>
      </trkpt>
      <trkpt lat="43.16812" lon="5.70816">
        <ele>126.06994628906</ele>
        <time>2011-03-06T11:40:22Z</time>
      </trkpt>
      <trkpt lat="43.16806" lon="5.70819">
        <ele>127.03137207031</ele>
        <time>2011-03-06T11:40:34Z</time>
      </trkpt>
      <trkpt lat="43.16805" lon="5.7082">
        <ele>127.51196289062</ele>
        <time>2011-03-06T11:40:35Z</time>
      </trkpt>
      <trkpt lat="43.16802" lon="5.70827">
        <ele>127.51196289062</ele>
        <time>2011-03-06T11:40:40Z</time>
      </trkpt>
      <trkpt lat="43.16794" lon="5.70854">
        <ele>127.03137207031</ele>
        <time>2011-03-06T11:40:51Z</time>
      </trkpt>
      <trkpt lat="43.16801" lon="5.70884">
        <ele>125.10876464844</ele>
        <time>2011-03-06T11:41:01Z</time>
      </trkpt>
      <trkpt lat="43.16785" lon="5.70907">
        <ele>121.26354980469</ele>
        <time>2011-03-06T11:41:10Z</time>
      </trkpt>
      <trkpt lat="43.1678" lon="5.7091">
        <ele>120.30212402344</ele>
        <time>2011-03-06T11:41:11Z</time>
      </trkpt>
      <trkpt lat="43.16767" lon="5.70914">
        <ele>119.82141113281</ele>
        <time>2011-03-06T11:41:14Z</time>
      </trkpt>
      <trkpt lat="43.16756" lon="5.70937">
        <ele>119.82141113281</ele>
        <time>2011-03-06T11:41:21Z</time>
      </trkpt>
      <trkpt lat="43.16758" lon="5.70946">
        <ele>116.9375</ele>
        <time>2011-03-06T11:41:29Z</time>
      </trkpt>
      <trkpt lat="43.16761" lon="5.70956">
        <ele>115.01489257812</ele>
        <time>2011-03-06T11:41:31Z</time>
      </trkpt>
      <trkpt lat="43.16763" lon="5.70959">
        <ele>115.01489257812</ele>
        <time>2011-03-06T11:41:35Z</time>
      </trkpt>
      <trkpt lat="43.16766" lon="5.70959">
        <ele>114.5341796875</ele>
        <time>2011-03-06T11:41:37Z</time>
      </trkpt>
      <trkpt lat="43.16777" lon="5.70956">
        <ele>113.09228515625</ele>
        <time>2011-03-06T11:41:41Z</time>
      </trkpt>
      <trkpt lat="43.1679" lon="5.70955">
        <ele>111.65026855469</ele>
        <time>2011-03-06T11:41:45Z</time>
      </trkpt>
      <trkpt lat="43.16808" lon="5.70958">
        <ele>109.24694824219</ele>
        <time>2011-03-06T11:41:49Z</time>
      </trkpt>
      <trkpt lat="43.16826" lon="5.7097">
        <ele>106.36303710938</ele>
        <time>2011-03-06T11:41:54Z</time>
      </trkpt>
      <trkpt lat="43.16832" lon="5.70981">
        <ele>105.88244628906</ele>
        <time>2011-03-06T11:42:03Z</time>
      </trkpt>
      <trkpt lat="43.16844" lon="5.7101">
        <ele>102.51770019531</ele>
        <time>2011-03-06T11:42:08Z</time>
      </trkpt>
      <trkpt lat="43.16848" lon="5.71014">
        <ele>102.99829101562</ele>
        <time>2011-03-06T11:42:16Z</time>
      </trkpt>
      <trkpt lat="43.1686" lon="5.71036">
        <ele>100.11450195312</ele>
        <time>2011-03-06T11:42:26Z</time>
      </trkpt>
      <trkpt lat="43.16863" lon="5.71039">
        <ele>100.11450195312</ele>
        <time>2011-03-06T11:42:27Z</time>
      </trkpt>
      <trkpt lat="43.16869" lon="5.71039">
        <ele>100.11450195312</ele>
        <time>2011-03-06T11:42:38Z</time>
      </trkpt>
      <trkpt lat="43.16878" lon="5.71044">
        <ele>97.23046875</ele>
        <time>2011-03-06T11:42:43Z</time>
      </trkpt>
      <trkpt lat="43.16888" lon="5.71047">
        <ele>95.788452148438</ele>
        <time>2011-03-06T11:42:49Z</time>
      </trkpt>
      <trkpt lat="43.16897" lon="5.71052">
        <ele>93.385131835938</ele>
        <time>2011-03-06T11:42:53Z</time>
      </trkpt>
      <trkpt lat="43.16915" lon="5.71062">
        <ele>90.020629882812</ele>
        <time>2011-03-06T11:42:57Z</time>
      </trkpt>
      <trkpt lat="43.16929" lon="5.71069">
        <ele>88.578735351562</ele>
        <time>2011-03-06T11:43:00Z</time>
      </trkpt>
      <trkpt lat="43.16945" lon="5.71092">
        <ele>84.7333984375</ele>
        <time>2011-03-06T11:43:06Z</time>
      </trkpt>
      <trkpt lat="43.16951" lon="5.71102">
        <ele>83.291381835938</ele>
        <time>2011-03-06T11:43:08Z</time>
      </trkpt>
      <trkpt lat="43.16964" lon="5.71112">
        <ele>81.849365234375</ele>
        <time>2011-03-06T11:43:11Z</time>
      </trkpt>
      <trkpt lat="43.16973" lon="5.71118">
        <ele>80.88818359375</ele>
        <time>2011-03-06T11:43:13Z</time>
      </trkpt>
      <trkpt lat="43.16983" lon="5.71123">
        <ele>79.446044921875</ele>
        <time>2011-03-06T11:43:15Z</time>
      </trkpt>
      <trkpt lat="43.16993" lon="5.71128">
        <ele>78.965454101562</ele>
        <time>2011-03-06T11:43:17Z</time>
      </trkpt>
      <trkpt lat="43.17013" lon="5.71131">
        <ele>77.042846679688</ele>
        <time>2011-03-06T11:43:20Z</time>
      </trkpt>
      <trkpt lat="43.17029" lon="5.71118">
        <ele>78.965454101562</ele>
        <time>2011-03-06T11:43:25Z</time>
      </trkpt>
      <trkpt lat="43.17034" lon="5.71103">
        <ele>78.004028320312</ele>
        <time>2011-03-06T11:43:30Z</time>
      </trkpt>
      <trkpt lat="43.17049" lon="5.71075">
        <ele>73.67822265625</ele>
        <time>2011-03-06T11:43:36Z</time>
      </trkpt>
      <trkpt lat="43.17053" lon="5.71066">
        <ele>70.794189453125</ele>
        <time>2011-03-06T11:43:38Z</time>
      </trkpt>
      <trkpt lat="43.17067" lon="5.71039">
        <ele>66.46826171875</ele>
        <time>2011-03-06T11:43:44Z</time>
      </trkpt>
      <trkpt lat="43.1707" lon="5.71035">
        <ele>65.987670898438</ele>
        <time>2011-03-06T11:43:45Z</time>
      </trkpt>
      <trkpt lat="43.1708" lon="5.70946">
        <ele>65.0263671875</ele>
        <time>2011-03-06T11:44:01Z</time>
      </trkpt>
      <trkpt lat="43.17081" lon="5.70939">
        <ele>64.545654296875</ele>
        <time>2011-03-06T11:44:02Z</time>
      </trkpt>
      <trkpt lat="43.17084" lon="5.70907">
        <ele>64.065063476562</ele>
        <time>2011-03-06T11:44:07Z</time>
      </trkpt>
      <trkpt lat="43.17089" lon="5.70851">
        <ele>61.661743164062</ele>
        <time>2011-03-06T11:44:17Z</time>
      </trkpt>
      <trkpt lat="43.1709" lon="5.70832">
        <ele>61.181030273438</ele>
        <time>2011-03-06T11:44:20Z</time>
      </trkpt>
      <trkpt lat="43.17088" lon="5.70812">
        <ele>60.700317382812</ele>
        <time>2011-03-06T11:44:23Z</time>
      </trkpt>
      <trkpt lat="43.17086" lon="5.70782">
        <ele>60.700317382812</ele>
        <time>2011-03-06T11:44:27Z</time>
      </trkpt>
      <trkpt lat="43.17075" lon="5.70738">
        <ele>63.584350585938</ele>
        <time>2011-03-06T11:44:36Z</time>
      </trkpt>
      <trkpt lat="43.17069" lon="5.70715">
        <ele>65.0263671875</ele>
        <time>2011-03-06T11:44:44Z</time>
      </trkpt>
      <trkpt lat="43.1705" lon="5.70677">
        <ele>67.4296875</ele>
        <time>2011-03-06T11:45:01Z</time>
      </trkpt>
      <trkpt lat="43.17038" lon="5.70653">
        <ele>69.352294921875</ele>
        <time>2011-03-06T11:45:13Z</time>
      </trkpt>
      <trkpt lat="43.17013" lon="5.70627">
        <ele>71.755493164062</ele>
        <time>2011-03-06T11:45:30Z</time>
      </trkpt>
      <trkpt lat="43.17011" lon="5.70625">
        <ele>71.755493164062</ele>
        <time>2011-03-06T11:45:31Z</time>
      </trkpt>
      <trkpt lat="43.16999" lon="5.70604">
        <ele>73.67822265625</ele>
        <time>2011-03-06T11:45:44Z</time>
      </trkpt>
      <trkpt lat="43.16998" lon="5.70602">
        <ele>74.158813476562</ele>
        <time>2011-03-06T11:45:45Z</time>
      </trkpt>
      <trkpt lat="43.16999" lon="5.70593">
        <ele>74.639526367188</ele>
        <time>2011-03-06T11:45:49Z</time>
      </trkpt>
      <trkpt lat="43.17" lon="5.70586">
        <ele>75.120239257812</ele>
        <time>2011-03-06T11:45:52Z</time>
      </trkpt>
      <trkpt lat="43.16986" lon="5.70558">
        <ele>77.042846679688</ele>
        <time>2011-03-06T11:46:08Z</time>
      </trkpt>
      <trkpt lat="43.16969" lon="5.70546">
        <ele>79.926635742188</ele>
        <time>2011-03-06T11:46:24Z</time>
      </trkpt>
      <trkpt lat="43.16966" lon="5.70546">
        <ele>79.926635742188</ele>
        <time>2011-03-06T11:46:26Z</time>
      </trkpt>
      <trkpt lat="43.1696" lon="5.70552">
        <ele>81.368774414062</ele>
        <time>2011-03-06T11:46:33Z</time>
      </trkpt>
      <trkpt lat="43.16952" lon="5.70576">
        <ele>83.291381835938</ele>
        <time>2011-03-06T11:46:46Z</time>
      </trkpt>
      <trkpt lat="43.16951" lon="5.7058">
        <ele>83.77197265625</ele>
        <time>2011-03-06T11:46:48Z</time>
      </trkpt>
      <trkpt lat="43.1694" lon="5.70591">
        <ele>85.694580078125</ele>
        <time>2011-03-06T11:46:59Z</time>
      </trkpt>
      <trkpt lat="43.16929" lon="5.70593">
        <ele>87.136596679688</ele>
        <time>2011-03-06T11:47:05Z</time>
      </trkpt>
      <trkpt lat="43.16927" lon="5.70592">
        <ele>87.6171875</ele>
        <time>2011-03-06T11:47:07Z</time>
      </trkpt>
      <trkpt lat="43.16911" lon="5.70576">
        <ele>89.059326171875</ele>
        <time>2011-03-06T11:47:21Z</time>
      </trkpt>
      <trkpt lat="43.16884" lon="5.70557">
        <ele>91.462524414062</ele>
        <time>2011-03-06T11:47:41Z</time>
      </trkpt>
      <trkpt lat="43.16873" lon="5.70553">
        <ele>92.904541015625</ele>
        <time>2011-03-06T11:47:49Z</time>
      </trkpt>
      <trkpt lat="43.16876" lon="5.70556">
        <ele>92.423950195312</ele>
        <time>2011-03-06T11:47:54Z</time>
      </trkpt>
      <trkpt lat="43.169" lon="5.70566">
        <ele>88.578735351562</ele>
        <time>2011-03-06T11:48:02Z</time>
      </trkpt>
      <trkpt lat="43.16911" lon="5.70579">
        <ele>87.6171875</ele>
        <time>2011-03-06T11:48:05Z</time>
      </trkpt>
      <trkpt lat="43.1693" lon="5.70596">
        <ele>86.17529296875</ele>
        <time>2011-03-06T11:48:10Z</time>
      </trkpt>
      <trkpt lat="43.16937" lon="5.70595">
        <ele>85.694580078125</ele>
        <time>2011-03-06T11:48:18Z</time>
      </trkpt>
      <trkpt lat="43.16934" lon="5.70579">
        <ele>81.849365234375</ele>
        <time>2011-03-06T11:48:23Z</time>
      </trkpt>
      <trkpt lat="43.16915" lon="5.70556">
        <ele>80.407470703125</ele>
        <time>2011-03-06T11:48:28Z</time>
      </trkpt>
      <trkpt lat="43.16905" lon="5.70537">
        <ele>78.484741210938</ele>
        <time>2011-03-06T11:48:32Z</time>
      </trkpt>
      <trkpt lat="43.16901" lon="5.70532">
        <ele>78.484741210938</ele>
        <time>2011-03-06T11:48:33Z</time>
      </trkpt>
      <trkpt lat="43.16891" lon="5.70508">
        <ele>75.600830078125</ele>
        <time>2011-03-06T11:48:37Z</time>
      </trkpt>
      <trkpt lat="43.1687" lon="5.70479">
        <ele>75.120239257812</ele>
        <time>2011-03-06T11:48:45Z</time>
      </trkpt>
      <trkpt lat="43.16869" lon="5.70476">
        <ele>74.639526367188</ele>
        <time>2011-03-06T11:48:47Z</time>
      </trkpt>
      <trkpt lat="43.16864" lon="5.70454">
        <ele>73.67822265625</ele>
        <time>2011-03-06T11:48:54Z</time>
      </trkpt>
      <trkpt lat="43.16865" lon="5.7045">
        <ele>74.639526367188</ele>
        <time>2011-03-06T11:48:56Z</time>
      </trkpt>
      <trkpt lat="43.1687" lon="5.70438">
        <ele>75.120239257812</ele>
        <time>2011-03-06T11:48:59Z</time>
      </trkpt>
      <trkpt lat="43.16873" lon="5.70407">
        <ele>78.484741210938</ele>
        <time>2011-03-06T11:49:10Z</time>
      </trkpt>
      <trkpt lat="43.16873" lon="5.70402">
        <ele>78.965454101562</ele>
        <time>2011-03-06T11:49:13Z</time>
      </trkpt>
      <trkpt lat="43.16872" lon="5.70375">
        <ele>80.88818359375</ele>
        <time>2011-03-06T11:49:22Z</time>
      </trkpt>
      <trkpt lat="43.16867" lon="5.70368">
        <ele>81.368774414062</ele>
        <time>2011-03-06T11:49:26Z</time>
      </trkpt>
      <trkpt lat="43.1686" lon="5.70367">
        <ele>81.849365234375</ele>
        <time>2011-03-06T11:49:30Z</time>
      </trkpt>
      <trkpt lat="43.16848" lon="5.7037">
        <ele>83.77197265625</ele>
        <time>2011-03-06T11:49:41Z</time>
      </trkpt>
      <trkpt lat="43.16822" lon="5.70375">
        <ele>85.213989257812</ele>
        <time>2011-03-06T11:49:55Z</time>
      </trkpt>
      <trkpt lat="43.16815" lon="5.70378">
        <ele>86.656005859375</ele>
        <time>2011-03-06T11:49:58Z</time>
      </trkpt>
      <trkpt lat="43.16807" lon="5.70381">
        <ele>87.136596679688</ele>
        <time>2011-03-06T11:50:03Z</time>
      </trkpt>
      <trkpt lat="43.16779" lon="5.70376">
        <ele>87.6171875</ele>
        <time>2011-03-06T11:50:15Z</time>
      </trkpt>
      <trkpt lat="43.16777" lon="5.70375">
        <ele>87.6171875</ele>
        <time>2011-03-06T11:50:16Z</time>
      </trkpt>
      <trkpt lat="43.16762" lon="5.70371">
        <ele>88.098022460938</ele>
        <time>2011-03-06T11:50:24Z</time>
      </trkpt>
      <trkpt lat="43.1676" lon="5.70364">
        <ele>87.6171875</ele>
        <time>2011-03-06T11:50:27Z</time>
      </trkpt>
      <trkpt lat="43.16755" lon="5.70362">
        <ele>87.6171875</ele>
        <time>2011-03-06T11:50:31Z</time>
      </trkpt>
      <trkpt lat="43.16751" lon="5.70366">
        <ele>89.059326171875</ele>
        <time>2011-03-06T11:50:35Z</time>
      </trkpt>
      <trkpt lat="43.1675" lon="5.70366">
        <ele>89.539916992188</ele>
        <time>2011-03-06T11:50:52Z</time>
      </trkpt>
      <trkpt lat="43.16753" lon="5.70365">
        <ele>89.059326171875</ele>
        <time>2011-03-06T11:50:54Z</time>
      </trkpt>
      <trkpt lat="43.1676" lon="5.70354">
        <ele>84.7333984375</ele>
        <time>2011-03-06T11:51:02Z</time>
      </trkpt>
      <trkpt lat="43.16767" lon="5.70342">
        <ele>82.330078125</ele>
        <time>2011-03-06T11:51:06Z</time>
      </trkpt>
      <trkpt lat="43.16776" lon="5.70327">
        <ele>77.5234375</ele>
        <time>2011-03-06T11:51:09Z</time>
      </trkpt>
      <trkpt lat="43.16784" lon="5.70311">
        <ele>73.67822265625</ele>
        <time>2011-03-06T11:51:12Z</time>
      </trkpt>
      <trkpt lat="43.16786" lon="5.70307">
        <ele>73.197631835938</ele>
        <time>2011-03-06T11:51:13Z</time>
      </trkpt>
      <trkpt lat="43.16788" lon="5.70302">
        <ele>73.197631835938</ele>
        <time>2011-03-06T11:51:14Z</time>
      </trkpt>
      <trkpt lat="43.16778" lon="5.70265">
        <ele>71.27490234375</ele>
        <time>2011-03-06T11:51:23Z</time>
      </trkpt>
      <trkpt lat="43.16777" lon="5.70264">
        <ele>71.755493164062</ele>
        <time>2011-03-06T11:51:24Z</time>
      </trkpt>
      <trkpt lat="43.16777" lon="5.7026">
        <ele>71.755493164062</ele>
        <time>2011-03-06T11:51:25Z</time>
      </trkpt>
      <trkpt lat="43.16781" lon="5.70238">
        <ele>67.910278320312</ele>
        <time>2011-03-06T11:51:30Z</time>
      </trkpt>
      <trkpt lat="43.16783" lon="5.70232">
        <ele>66.46826171875</ele>
        <time>2011-03-06T11:51:31Z</time>
      </trkpt>
      <trkpt lat="43.16792" lon="5.70203">
        <ele>65.0263671875</ele>
        <time>2011-03-06T11:51:35Z</time>
      </trkpt>
      <trkpt lat="43.1678" lon="5.70176">
        <ele>66.948974609375</ele>
        <time>2011-03-06T11:51:43Z</time>
      </trkpt>
      <trkpt lat="43.16774" lon="5.7017">
        <ele>67.910278320312</ele>
        <time>2011-03-06T11:51:47Z</time>
      </trkpt>
      <trkpt lat="43.16763" lon="5.70142">
        <ele>69.352294921875</ele>
        <time>2011-03-06T11:51:58Z</time>
      </trkpt>
      <trkpt lat="43.16764" lon="5.70125">
        <ele>69.832885742188</ele>
        <time>2011-03-06T11:52:04Z</time>
      </trkpt>
      <trkpt lat="43.16765" lon="5.70074">
        <ele>67.4296875</ele>
        <time>2011-03-06T11:52:18Z</time>
      </trkpt>
      <trkpt lat="43.16765" lon="5.70071">
        <ele>67.910278320312</ele>
        <time>2011-03-06T11:52:29Z</time>
      </trkpt>
      <trkpt lat="43.16765" lon="5.7007">
        <ele>67.4296875</ele>
        <time>2011-03-06T11:52:33Z</time>
      </trkpt>
      <trkpt lat="43.16748" lon="5.70076">
        <ele>69.352294921875</ele>
        <time>2011-03-06T11:52:45Z</time>
      </trkpt>
      <trkpt lat="43.16748" lon="5.70077">
        <ele>69.352294921875</ele>
        <time>2011-03-06T11:52:57Z</time>
      </trkpt>
      <trkpt lat="43.16762" lon="5.70069">
        <ele>67.4296875</ele>
        <time>2011-03-06T11:53:04Z</time>
      </trkpt>
      <trkpt lat="43.16761" lon="5.70058">
        <ele>65.987670898438</ele>
        <time>2011-03-06T11:53:10Z</time>
      </trkpt>
      <trkpt lat="43.16754" lon="5.70053">
        <ele>65.507080078125</ele>
        <time>2011-03-06T11:53:13Z</time>
      </trkpt>
      <trkpt lat="43.16747" lon="5.70051">
        <ele>65.507080078125</ele>
        <time>2011-03-06T11:53:16Z</time>
      </trkpt>
      <trkpt lat="43.16739" lon="5.70049">
        <ele>65.0263671875</ele>
        <time>2011-03-06T11:53:19Z</time>
      </trkpt>
      <trkpt lat="43.1673" lon="5.7005">
        <ele>65.987670898438</ele>
        <time>2011-03-06T11:53:23Z</time>
      </trkpt>
      <trkpt lat="43.16719" lon="5.70039">
        <ele>65.0263671875</ele>
        <time>2011-03-06T11:53:29Z</time>
      </trkpt>
      <trkpt lat="43.16707" lon="5.69992">
        <ele>61.181030273438</ele>
        <time>2011-03-06T11:53:37Z</time>
      </trkpt>
      <trkpt lat="43.16703" lon="5.69992">
        <ele>62.142333984375</ele>
        <time>2011-03-06T11:53:47Z</time>
      </trkpt>
      <trkpt lat="43.16699" lon="5.69985">
        <ele>60.700317382812</ele>
        <time>2011-03-06T11:53:51Z</time>
      </trkpt>
      <trkpt lat="43.16697" lon="5.69977">
        <ele>60.2197265625</ele>
        <time>2011-03-06T11:53:53Z</time>
      </trkpt>
      <trkpt lat="43.16681" lon="5.69985">
        <ele>61.661743164062</ele>
        <time>2011-03-06T11:54:04Z</time>
      </trkpt>
      <trkpt lat="43.16658" lon="5.70004">
        <ele>61.181030273438</ele>
        <time>2011-03-06T11:54:16Z</time>
      </trkpt>
      <trkpt lat="43.16654" lon="5.70003">
        <ele>61.181030273438</ele>
        <time>2011-03-06T11:54:29Z</time>
      </trkpt>
      <trkpt lat="43.16654" lon="5.70003">
        <ele>61.181030273438</ele>
        <time>2011-03-06T11:54:46Z</time>
      </trkpt>
      <trkpt lat="43.16653" lon="5.70004">
        <ele>61.181030273438</ele>
        <time>2011-03-06T11:55:22Z</time>
      </trkpt>
      <trkpt lat="43.16652" lon="5.70005">
        <ele>61.181030273438</ele>
        <time>2011-03-06T11:56:50Z</time>
      </trkpt>
      <trkpt lat="43.1665" lon="5.70005">
        <ele>61.181030273438</ele>
        <time>2011-03-06T11:56:53Z</time>
      </trkpt>
      <trkpt lat="43.16643" lon="5.7">
        <ele>60.2197265625</ele>
        <time>2011-03-06T11:57:00Z</time>
      </trkpt>
      <trkpt lat="43.1664" lon="5.69999">
        <ele>60.2197265625</ele>
        <time>2011-03-06T11:57:05Z</time>
      </trkpt>
      <trkpt lat="43.1661" lon="5.70012">
        <ele>60.700317382812</ele>
        <time>2011-03-06T11:57:18Z</time>
      </trkpt>
      <trkpt lat="43.16567" lon="5.69985">
        <ele>61.181030273438</ele>
        <time>2011-03-06T11:57:34Z</time>
      </trkpt>
      <trkpt lat="43.16524" lon="5.69948">
        <ele>61.661743164062</ele>
        <time>2011-03-06T11:57:49Z</time>
      </trkpt>
      <trkpt lat="43.16455" lon="5.69887">
        <ele>62.622924804688</ele>
        <time>2011-03-06T11:58:13Z</time>
      </trkpt>
      <trkpt lat="43.16413" lon="5.69859">
        <ele>64.545654296875</ele>
        <time>2011-03-06T11:58:27Z</time>
      </trkpt>
      <trkpt lat="43.16396" lon="5.69848">
        <ele>66.46826171875</ele>
        <time>2011-03-06T11:58:35Z</time>
      </trkpt>
      <trkpt lat="43.16386" lon="5.69846">
        <ele>68.390869140625</ele>
        <time>2011-03-06T11:58:41Z</time>
      </trkpt>
      <trkpt lat="43.16373" lon="5.6984">
        <ele>68.390869140625</ele>
        <time>2011-03-06T11:58:53Z</time>
      </trkpt>
      <trkpt lat="43.16375" lon="5.69842">
        <ele>68.390869140625</ele>
        <time>2011-03-06T11:59:11Z</time>
      </trkpt>
      <trkpt lat="43.16395" lon="5.69849">
        <ele>66.948974609375</ele>
        <time>2011-03-06T11:59:23Z</time>
      </trkpt>
      <trkpt lat="43.16402" lon="5.69854">
        <ele>65.987670898438</ele>
        <time>2011-03-06T11:59:25Z</time>
      </trkpt>
      <trkpt lat="43.16412" lon="5.69859">
        <ele>65.0263671875</ele>
        <time>2011-03-06T11:59:28Z</time>
      </trkpt>
      <trkpt lat="43.16426" lon="5.69865">
        <ele>62.622924804688</ele>
        <time>2011-03-06T11:59:31Z</time>
      </trkpt>
      <trkpt lat="43.16435" lon="5.69869">
        <ele>63.103637695312</ele>
        <time>2011-03-06T11:59:34Z</time>
      </trkpt>
      <trkpt lat="43.16436" lon="5.6988">
        <ele>65.0263671875</ele>
        <time>2011-03-06T11:59:42Z</time>
      </trkpt>
      <trkpt lat="43.1643" lon="5.69892">
        <ele>67.910278320312</ele>
        <time>2011-03-06T11:59:57Z</time>
      </trkpt>
      <trkpt lat="43.16415" lon="5.699">
        <ele>71.27490234375</ele>
        <time>2011-03-06T12:00:14Z</time>
      </trkpt>
      <trkpt lat="43.164" lon="5.69905">
        <ele>74.158813476562</ele>
        <time>2011-03-06T12:00:36Z</time>
      </trkpt>
      <trkpt lat="43.16395" lon="5.69911">
        <ele>75.120239257812</ele>
        <time>2011-03-06T12:00:50Z</time>
      </trkpt>
      <trkpt lat="43.16384" lon="5.69916">
        <ele>78.004028320312</ele>
        <time>2011-03-06T12:01:05Z</time>
      </trkpt>
      <trkpt lat="43.16373" lon="5.69927">
        <ele>80.88818359375</ele>
        <time>2011-03-06T12:01:23Z</time>
      </trkpt>
      <trkpt lat="43.16372" lon="5.69933">
        <ele>81.368774414062</ele>
        <time>2011-03-06T12:01:35Z</time>
      </trkpt>
      <trkpt lat="43.16377" lon="5.69936">
        <ele>81.849365234375</ele>
        <time>2011-03-06T12:01:39Z</time>
      </trkpt>
      <trkpt lat="43.16406" lon="5.69941">
        <ele>83.291381835938</ele>
        <time>2011-03-06T12:01:55Z</time>
      </trkpt>
      <trkpt lat="43.16427" lon="5.69939">
        <ele>83.77197265625</ele>
        <time>2011-03-06T12:02:04Z</time>
      </trkpt>
      <trkpt lat="43.16433" lon="5.69946">
        <ele>85.213989257812</ele>
        <time>2011-03-06T12:02:15Z</time>
      </trkpt>
      <trkpt lat="43.16431" lon="5.6996">
        <ele>88.098022460938</ele>
        <time>2011-03-06T12:02:30Z</time>
      </trkpt>
      <trkpt lat="43.16435" lon="5.69966">
        <ele>90.501342773438</ele>
        <time>2011-03-06T12:02:43Z</time>
      </trkpt>
      <trkpt lat="43.1644" lon="5.69973">
        <ele>91.943237304688</ele>
        <time>2011-03-06T12:03:02Z</time>
      </trkpt>
      <trkpt lat="43.16439" lon="5.69984">
        <ele>92.423950195312</ele>
        <time>2011-03-06T12:03:09Z</time>
      </trkpt>
      <trkpt lat="43.16432" lon="5.69986">
        <ele>92.423950195312</ele>
        <time>2011-03-06T12:03:15Z</time>
      </trkpt>
      <trkpt lat="43.16424" lon="5.69992">
        <ele>92.904541015625</ele>
        <time>2011-03-06T12:03:21Z</time>
      </trkpt>
      <trkpt lat="43.16422" lon="5.69994">
        <ele>93.385131835938</ele>
        <time>2011-03-06T12:03:23Z</time>
      </trkpt>
      <trkpt lat="43.16421" lon="5.7">
        <ele>93.865844726562</ele>
        <time>2011-03-06T12:03:26Z</time>
      </trkpt>
      <trkpt lat="43.16411" lon="5.70004">
        <ele>95.307739257812</ele>
        <time>2011-03-06T12:03:34Z</time>
      </trkpt>
      <trkpt lat="43.16374" lon="5.70005">
        <ele>94.346557617188</ele>
        <time>2011-03-06T12:03:49Z</time>
      </trkpt>
      <trkpt lat="43.16358" lon="5.70011">
        <ele>93.385131835938</ele>
        <time>2011-03-06T12:03:53Z</time>
      </trkpt>
      <trkpt lat="43.16322" lon="5.70029">
        <ele>92.423950195312</ele>
        <time>2011-03-06T12:04:02Z</time>
      </trkpt>
      <trkpt lat="43.1631" lon="5.70041">
        <ele>93.385131835938</ele>
        <time>2011-03-06T12:04:11Z</time>
      </trkpt>
      <trkpt lat="43.1631" lon="5.70041">
        <ele>93.385131835938</ele>
        <time>2011-03-06T12:04:13Z</time>
      </trkpt>
      <trkpt lat="43.16298" lon="5.70066">
        <ele>90.98193359375</ele>
        <time>2011-03-06T12:04:23Z</time>
      </trkpt>
      <trkpt lat="43.16285" lon="5.70097">
        <ele>87.6171875</ele>
        <time>2011-03-06T12:04:28Z</time>
      </trkpt>
      <trkpt lat="43.16279" lon="5.70113">
        <ele>86.17529296875</ele>
        <time>2011-03-06T12:04:30Z</time>
      </trkpt>
      <trkpt lat="43.16276" lon="5.70121">
        <ele>86.17529296875</ele>
        <time>2011-03-06T12:04:31Z</time>
      </trkpt>
      <trkpt lat="43.16264" lon="5.70172">
        <ele>83.77197265625</ele>
        <time>2011-03-06T12:04:37Z</time>
      </trkpt>
      <trkpt lat="43.16253" lon="5.70239">
        <ele>85.694580078125</ele>
        <time>2011-03-06T12:04:47Z</time>
      </trkpt>
      <trkpt lat="43.16247" lon="5.70272">
        <ele>87.6171875</ele>
        <time>2011-03-06T12:04:54Z</time>
      </trkpt>
      <trkpt lat="43.16248" lon="5.7031">
        <ele>90.020629882812</ele>
        <time>2011-03-06T12:05:05Z</time>
      </trkpt>
      <trkpt lat="43.16246" lon="5.70338">
        <ele>90.501342773438</ele>
        <time>2011-03-06T12:05:15Z</time>
      </trkpt>
      <trkpt lat="43.16243" lon="5.70377">
        <ele>90.501342773438</ele>
        <time>2011-03-06T12:05:27Z</time>
      </trkpt>
      <trkpt lat="43.16244" lon="5.70389">
        <ele>91.462524414062</ele>
        <time>2011-03-06T12:05:31Z</time>
      </trkpt>
      <trkpt lat="43.16243" lon="5.70394">
        <ele>91.943237304688</ele>
        <time>2011-03-06T12:05:33Z</time>
      </trkpt>
      <trkpt lat="43.16234" lon="5.70418">
        <ele>92.423950195312</ele>
        <time>2011-03-06T12:05:46Z</time>
      </trkpt>
      <trkpt lat="43.16222" lon="5.70442">
        <ele>91.943237304688</ele>
        <time>2011-03-06T12:05:54Z</time>
      </trkpt>
      <trkpt lat="43.16214" lon="5.7045">
        <ele>90.98193359375</ele>
        <time>2011-03-06T12:05:58Z</time>
      </trkpt>
      <trkpt lat="43.16199" lon="5.70451">
        <ele>85.694580078125</ele>
        <time>2011-03-06T12:06:01Z</time>
      </trkpt>
      <trkpt lat="43.16192" lon="5.7045">
        <ele>83.77197265625</ele>
        <time>2011-03-06T12:06:02Z</time>
      </trkpt>
      <trkpt lat="43.16151" lon="5.70439">
        <ele>77.5234375</ele>
        <time>2011-03-06T12:06:07Z</time>
      </trkpt>
      <trkpt lat="43.16132" lon="5.70434">
        <ele>75.120239257812</ele>
        <time>2011-03-06T12:06:09Z</time>
      </trkpt>
      <trkpt lat="43.16123" lon="5.70431">
        <ele>74.639526367188</ele>
        <time>2011-03-06T12:06:10Z</time>
      </trkpt>
      <trkpt lat="43.16098" lon="5.70416">
        <ele>73.197631835938</ele>
        <time>2011-03-06T12:06:13Z</time>
      </trkpt>
      <trkpt lat="43.16077" lon="5.70394">
        <ele>75.120239257812</ele>
        <time>2011-03-06T12:06:17Z</time>
      </trkpt>
      <trkpt lat="43.16051" lon="5.70399">
        <ele>73.197631835938</ele>
        <time>2011-03-06T12:06:26Z</time>
      </trkpt>
      <trkpt lat="43.16036" lon="5.7041">
        <ele>72.716918945312</ele>
        <time>2011-03-06T12:06:35Z</time>
      </trkpt>
      <trkpt lat="43.16018" lon="5.70424">
        <ele>71.27490234375</ele>
        <time>2011-03-06T12:06:44Z</time>
      </trkpt>
      <trkpt lat="43.16012" lon="5.70499">
        <ele>70.794189453125</ele>
        <time>2011-03-06T12:07:01Z</time>
      </trkpt>
      <trkpt lat="43.16012" lon="5.70577">
        <ele>70.794189453125</ele>
        <time>2011-03-06T12:07:18Z</time>
      </trkpt>
      <trkpt lat="43.1601" lon="5.70663">
        <ele>70.794189453125</ele>
        <time>2011-03-06T12:07:36Z</time>
      </trkpt>
      <trkpt lat="43.15993" lon="5.70678">
        <ele>68.390869140625</ele>
        <time>2011-03-06T12:07:41Z</time>
      </trkpt>
      <trkpt lat="43.15977" lon="5.7068">
        <ele>66.46826171875</ele>
        <time>2011-03-06T12:07:45Z</time>
      </trkpt>
      <trkpt lat="43.1596" lon="5.70681">
        <ele>63.584350585938</ele>
        <time>2011-03-06T12:07:49Z</time>
      </trkpt>
      <trkpt lat="43.15948" lon="5.70684">
        <ele>61.661743164062</ele>
        <time>2011-03-06T12:07:52Z</time>
      </trkpt>
      <trkpt lat="43.15942" lon="5.70693">
        <ele>61.181030273438</ele>
        <time>2011-03-06T12:07:54Z</time>
      </trkpt>
      <trkpt lat="43.15936" lon="5.70703">
        <ele>60.700317382812</ele>
        <time>2011-03-06T12:07:56Z</time>
      </trkpt>
      <trkpt lat="43.15928" lon="5.70718">
        <ele>60.700317382812</ele>
        <time>2011-03-06T12:07:59Z</time>
      </trkpt>
      <trkpt lat="43.15919" lon="5.70729">
        <ele>58.777709960938</ele>
        <time>2011-03-06T12:08:02Z</time>
      </trkpt>
      <trkpt lat="43.15904" lon="5.70761">
        <ele>59.258422851562</ele>
        <time>2011-03-06T12:08:13Z</time>
      </trkpt>
      <trkpt lat="43.15903" lon="5.70777">
        <ele>58.777709960938</ele>
        <time>2011-03-06T12:08:17Z</time>
      </trkpt>
      <trkpt lat="43.15888" lon="5.70781">
        <ele>54.932373046875</ele>
        <time>2011-03-06T12:08:22Z</time>
      </trkpt>
      <trkpt lat="43.15882" lon="5.70777">
        <ele>53.490478515625</ele>
        <time>2011-03-06T12:08:24Z</time>
      </trkpt>
      <trkpt lat="43.15876" lon="5.70765">
        <ele>51.56787109375</ele>
        <time>2011-03-06T12:08:27Z</time>
      </trkpt>
      <trkpt lat="43.15864" lon="5.70768">
        <ele>51.087158203125</ele>
        <time>2011-03-06T12:08:33Z</time>
      </trkpt>
      <trkpt lat="43.15856" lon="5.70782">
        <ele>50.1259765625</ele>
        <time>2011-03-06T12:08:38Z</time>
      </trkpt>
      <trkpt lat="43.15851" lon="5.70787">
        <ele>49.645263671875</ele>
        <time>2011-03-06T12:08:40Z</time>
      </trkpt>
      <trkpt lat="43.15833" lon="5.70827">
        <ele>47.722534179688</ele>
        <time>2011-03-06T12:08:49Z</time>
      </trkpt>
      <trkpt lat="43.15812" lon="5.70883">
        <ele>44.838623046875</ele>
        <time>2011-03-06T12:09:01Z</time>
      </trkpt>
      <trkpt lat="43.15807" lon="5.70891">
        <ele>44.838623046875</ele>
        <time>2011-03-06T12:09:03Z</time>
      </trkpt>
      <trkpt lat="43.15803" lon="5.70901">
        <ele>44.358032226562</ele>
        <time>2011-03-06T12:09:06Z</time>
      </trkpt>
      <trkpt lat="43.15797" lon="5.70909">
        <ele>43.877319335938</ele>
        <time>2011-03-06T12:09:09Z</time>
      </trkpt>
      <trkpt lat="43.15788" lon="5.70925">
        <ele>43.877319335938</ele>
        <time>2011-03-06T12:09:16Z</time>
      </trkpt>
      <trkpt lat="43.15787" lon="5.70927">
        <ele>43.396606445312</ele>
        <time>2011-03-06T12:09:17Z</time>
      </trkpt>
      <trkpt lat="43.15769" lon="5.7096">
        <ele>40.993408203125</ele>
        <time>2011-03-06T12:09:27Z</time>
      </trkpt>
      <trkpt lat="43.15735" lon="5.71005">
        <ele>39.55126953125</ele>
        <time>2011-03-06T12:09:38Z</time>
      </trkpt>
      <trkpt lat="43.15717" lon="5.71127">
        <ele>41.473999023438</ele>
        <time>2011-03-06T12:10:01Z</time>
      </trkpt>
      <trkpt lat="43.15704" lon="5.71195">
        <ele>42.916015625</ele>
        <time>2011-03-06T12:10:18Z</time>
      </trkpt>
      <trkpt lat="43.157" lon="5.71252">
        <ele>43.877319335938</ele>
        <time>2011-03-06T12:10:35Z</time>
      </trkpt>
      <trkpt lat="43.15701" lon="5.71315">
        <ele>43.396606445312</ele>
        <time>2011-03-06T12:10:51Z</time>
      </trkpt>
      <trkpt lat="43.15691" lon="5.71352">
        <ele>42.435424804688</ele>
        <time>2011-03-06T12:10:59Z</time>
      </trkpt>
      <trkpt lat="43.15689" lon="5.71388">
        <ele>39.070678710938</ele>
        <time>2011-03-06T12:11:04Z</time>
      </trkpt>
      <trkpt lat="43.15678" lon="5.71427">
        <ele>34.26416015625</ele>
        <time>2011-03-06T12:11:09Z</time>
      </trkpt>
      <trkpt lat="43.15671" lon="5.7145">
        <ele>30.899536132812</ele>
        <time>2011-03-06T12:11:12Z</time>
      </trkpt>
      <trkpt lat="43.15669" lon="5.71457">
        <ele>31.380126953125</ele>
        <time>2011-03-06T12:11:13Z</time>
      </trkpt>
      <trkpt lat="43.15667" lon="5.71461">
        <ele>31.380126953125</ele>
        <time>2011-03-06T12:11:14Z</time>
      </trkpt>
      <trkpt lat="43.15653" lon="5.71475">
        <ele>30.899536132812</ele>
        <time>2011-03-06T12:11:20Z</time>
      </trkpt>
      <trkpt lat="43.15646" lon="5.71497">
        <ele>30.418823242188</ele>
        <time>2011-03-06T12:11:24Z</time>
      </trkpt>
      <trkpt lat="43.15647" lon="5.71549">
        <ele>33.783447265625</ele>
        <time>2011-03-06T12:11:37Z</time>
      </trkpt>
      <trkpt lat="43.15644" lon="5.71586">
        <ele>35.7060546875</ele>
        <time>2011-03-06T12:11:46Z</time>
      </trkpt>
      <trkpt lat="43.15637" lon="5.71588">
        <ele>37.628662109375</ele>
        <time>2011-03-06T12:11:53Z</time>
      </trkpt>
      <trkpt lat="43.15629" lon="5.71586">
        <ele>39.070678710938</ele>
        <time>2011-03-06T12:11:59Z</time>
      </trkpt>
      <trkpt lat="43.1562" lon="5.71587">
        <ele>40.993408203125</ele>
        <time>2011-03-06T12:12:05Z</time>
      </trkpt>
      <trkpt lat="43.15604" lon="5.71583">
        <ele>44.358032226562</ele>
        <time>2011-03-06T12:12:18Z</time>
      </trkpt>
      <trkpt lat="43.15603" lon="5.71582">
        <ele>44.838623046875</ele>
        <time>2011-03-06T12:12:19Z</time>
      </trkpt>
      <trkpt lat="43.15593" lon="5.71583">
        <ele>45.319213867188</ele>
        <time>2011-03-06T12:12:32Z</time>
      </trkpt>
      <trkpt lat="43.15593" lon="5.71583">
        <ele>45.319213867188</ele>
        <time>2011-03-06T12:12:35Z</time>
      </trkpt>
      <trkpt lat="43.15594" lon="5.7159">
        <ele>46.280639648438</ele>
        <time>2011-03-06T12:12:39Z</time>
      </trkpt>
      <trkpt lat="43.156" lon="5.71598">
        <ele>46.280639648438</ele>
        <time>2011-03-06T12:12:44Z</time>
      </trkpt>
      <trkpt lat="43.15608" lon="5.71604">
        <ele>45.799926757812</ele>
        <time>2011-03-06T12:12:48Z</time>
      </trkpt>
      <trkpt lat="43.15632" lon="5.71629">
        <ele>45.799926757812</ele>
        <time>2011-03-06T12:12:59Z</time>
      </trkpt>
      <trkpt lat="43.15655" lon="5.71656">
        <ele>46.76123046875</ele>
        <time>2011-03-06T12:13:12Z</time>
      </trkpt>
      <trkpt lat="43.1568" lon="5.71687">
        <ele>47.722534179688</ele>
        <time>2011-03-06T12:13:28Z</time>
      </trkpt>
      <trkpt lat="43.15704" lon="5.71711">
        <ele>48.203369140625</ele>
        <time>2011-03-06T12:13:41Z</time>
      </trkpt>
      <trkpt lat="43.15718" lon="5.71724">
        <ele>46.280639648438</ele>
        <time>2011-03-06T12:13:46Z</time>
      </trkpt>
      <trkpt lat="43.15727" lon="5.71741">
        <ele>45.319213867188</ele>
        <time>2011-03-06T12:13:50Z</time>
      </trkpt>
      <trkpt lat="43.15732" lon="5.71758">
        <ele>45.799926757812</ele>
        <time>2011-03-06T12:13:54Z</time>
      </trkpt>
      <trkpt lat="43.15733" lon="5.71764">
        <ele>46.280639648438</ele>
        <time>2011-03-06T12:13:56Z</time>
      </trkpt>
      <trkpt lat="43.15735" lon="5.71774">
        <ele>46.76123046875</ele>
        <time>2011-03-06T12:14:00Z</time>
      </trkpt>
      <trkpt lat="43.15732" lon="5.71786">
        <ele>47.241821289062</ele>
        <time>2011-03-06T12:14:04Z</time>
      </trkpt>
      <trkpt lat="43.15732" lon="5.71796">
        <ele>48.683959960938</ele>
        <time>2011-03-06T12:14:08Z</time>
      </trkpt>
      <trkpt lat="43.15734" lon="5.71821">
        <ele>48.683959960938</ele>
        <time>2011-03-06T12:14:16Z</time>
      </trkpt>
      <trkpt lat="43.15732" lon="5.71833">
        <ele>49.16455078125</ele>
        <time>2011-03-06T12:14:21Z</time>
      </trkpt>
      <trkpt lat="43.15732" lon="5.71842">
        <ele>49.645263671875</ele>
        <time>2011-03-06T12:14:24Z</time>
      </trkpt>
      <trkpt lat="43.15745" lon="5.71845">
        <ele>49.645263671875</ele>
        <time>2011-03-06T12:14:33Z</time>
      </trkpt>
      <trkpt lat="43.15749" lon="5.71808">
        <ele>51.56787109375</ele>
        <time>2011-03-06T12:14:48Z</time>
      </trkpt>
      <trkpt lat="43.1575" lon="5.71806">
        <ele>51.56787109375</ele>
        <time>2011-03-06T12:14:49Z</time>
      </trkpt>
      <trkpt lat="43.15765" lon="5.71779">
        <ele>54.932373046875</ele>
        <time>2011-03-06T12:15:05Z</time>
      </trkpt>
      <trkpt lat="43.15784" lon="5.71773">
        <ele>57.816528320312</ele>
        <time>2011-03-06T12:15:18Z</time>
      </trkpt>
      <trkpt lat="43.15804" lon="5.71771">
        <ele>59.739135742188</ele>
        <time>2011-03-06T12:15:32Z</time>
      </trkpt>
      <trkpt lat="43.15827" lon="5.71777">
        <ele>62.622924804688</ele>
        <time>2011-03-06T12:15:48Z</time>
      </trkpt>
      <trkpt lat="43.15834" lon="5.7178">
        <ele>63.103637695312</ele>
        <time>2011-03-06T12:15:53Z</time>
      </trkpt>
      <trkpt lat="43.15858" lon="5.71788">
        <ele>65.507080078125</ele>
        <time>2011-03-06T12:16:11Z</time>
      </trkpt>
      <trkpt lat="43.15877" lon="5.71798">
        <ele>66.948974609375</ele>
        <time>2011-03-06T12:16:25Z</time>
      </trkpt>
      <trkpt lat="43.15905" lon="5.71806">
        <ele>70.3134765625</ele>
        <time>2011-03-06T12:16:45Z</time>
      </trkpt>
      <trkpt lat="43.15928" lon="5.71808">
        <ele>72.716918945312</ele>
        <time>2011-03-06T12:17:02Z</time>
      </trkpt>
      <trkpt lat="43.15948" lon="5.71806">
        <ele>74.158813476562</ele>
        <time>2011-03-06T12:17:16Z</time>
      </trkpt>
      <trkpt lat="43.15949" lon="5.71804">
        <ele>74.158813476562</ele>
        <time>2011-03-06T12:17:17Z</time>
      </trkpt>
      <trkpt lat="43.15955" lon="5.71785">
        <ele>75.600830078125</ele>
        <time>2011-03-06T12:17:28Z</time>
      </trkpt>
      <trkpt lat="43.15966" lon="5.71751">
        <ele>77.042846679688</ele>
        <time>2011-03-06T12:17:45Z</time>
      </trkpt>
      <trkpt lat="43.15997" lon="5.71735">
        <ele>79.446044921875</ele>
        <time>2011-03-06T12:18:05Z</time>
      </trkpt>
      <trkpt lat="43.16028" lon="5.71741">
        <ele>81.849365234375</ele>
        <time>2011-03-06T12:18:23Z</time>
      </trkpt>
      <trkpt lat="43.16048" lon="5.71781">
        <ele>84.7333984375</ele>
        <time>2011-03-06T12:18:43Z</time>
      </trkpt>
      <trkpt lat="43.16048" lon="5.71788">
        <ele>85.213989257812</ele>
        <time>2011-03-06T12:18:47Z</time>
      </trkpt>
      <trkpt lat="43.16047" lon="5.71791">
        <ele>85.694580078125</ele>
        <time>2011-03-06T12:18:49Z</time>
      </trkpt>
      <trkpt lat="43.16045" lon="5.718">
        <ele>86.656005859375</ele>
        <time>2011-03-06T12:18:54Z</time>
      </trkpt>
      <trkpt lat="43.16034" lon="5.71821">
        <ele>89.059326171875</ele>
        <time>2011-03-06T12:19:12Z</time>
      </trkpt>
      <trkpt lat="43.16025" lon="5.71839">
        <ele>90.501342773438</ele>
        <time>2011-03-06T12:19:26Z</time>
      </trkpt>
      <trkpt lat="43.16023" lon="5.71844">
        <ele>90.501342773438</ele>
        <time>2011-03-06T12:19:30Z</time>
      </trkpt>
      <trkpt lat="43.16011" lon="5.7186">
        <ele>90.501342773438</ele>
        <time>2011-03-06T12:19:38Z</time>
      </trkpt>
      <trkpt lat="43.15977" lon="5.71875">
        <ele>90.98193359375</ele>
        <time>2011-03-06T12:19:54Z</time>
      </trkpt>
      <trkpt lat="43.15952" lon="5.71888">
        <ele>91.943237304688</ele>
        <time>2011-03-06T12:20:05Z</time>
      </trkpt>
      <trkpt lat="43.15918" lon="5.71903">
        <ele>95.307739257812</ele>
        <time>2011-03-06T12:20:22Z</time>
      </trkpt>
      <trkpt lat="43.15885" lon="5.71922">
        <ele>97.23046875</ele>
        <time>2011-03-06T12:20:43Z</time>
      </trkpt>
      <trkpt lat="43.15881" lon="5.71953">
        <ele>98.19189453125</ele>
        <time>2011-03-06T12:20:58Z</time>
      </trkpt>
      <trkpt lat="43.15888" lon="5.71961">
        <ele>99.153076171875</ele>
        <time>2011-03-06T12:21:04Z</time>
      </trkpt>
      <trkpt lat="43.15906" lon="5.71975">
        <ele>100.59509277344</ele>
        <time>2011-03-06T12:21:19Z</time>
      </trkpt>
      <trkpt lat="43.15928" lon="5.71993">
        <ele>103.47900390625</ele>
        <time>2011-03-06T12:21:38Z</time>
      </trkpt>
      <trkpt lat="43.15947" lon="5.72007">
        <ele>105.88244628906</ele>
        <time>2011-03-06T12:21:55Z</time>
      </trkpt>
      <trkpt lat="43.1595" lon="5.72009">
        <ele>106.36303710938</ele>
        <time>2011-03-06T12:21:57Z</time>
      </trkpt>
      <trkpt lat="43.15965" lon="5.72022">
        <ele>107.80505371094</ele>
        <time>2011-03-06T12:22:10Z</time>
      </trkpt>
      <trkpt lat="43.15981" lon="5.72029">
        <ele>109.72766113281</ele>
        <time>2011-03-06T12:22:24Z</time>
      </trkpt>
      <trkpt lat="43.15985" lon="5.72022">
        <ele>110.68884277344</ele>
        <time>2011-03-06T12:22:29Z</time>
      </trkpt>
      <trkpt lat="43.15987" lon="5.72018">
        <ele>111.16955566406</ele>
        <time>2011-03-06T12:22:32Z</time>
      </trkpt>
      <trkpt lat="43.16006" lon="5.72019">
        <ele>113.57299804688</ele>
        <time>2011-03-06T12:22:48Z</time>
      </trkpt>
      <trkpt lat="43.1601" lon="5.72021">
        <ele>114.5341796875</ele>
        <time>2011-03-06T12:22:52Z</time>
      </trkpt>
      <trkpt lat="43.16012" lon="5.7202">
        <ele>114.5341796875</ele>
        <time>2011-03-06T12:23:09Z</time>
      </trkpt>
      <trkpt lat="43.16019" lon="5.72023">
        <ele>115.49560546875</ele>
        <time>2011-03-06T12:24:04Z</time>
      </trkpt>
      <trkpt lat="43.16024" lon="5.72028">
        <ele>116.45678710938</ele>
        <time>2011-03-06T12:24:08Z</time>
      </trkpt>
      <trkpt lat="43.16029" lon="5.72036">
        <ele>118.37939453125</ele>
        <time>2011-03-06T12:24:14Z</time>
      </trkpt>
      <trkpt lat="43.16035" lon="5.72042">
        <ele>119.82141113281</ele>
        <time>2011-03-06T12:24:19Z</time>
      </trkpt>
      <trkpt lat="43.16035" lon="5.72045">
        <ele>119.82141113281</ele>
        <time>2011-03-06T12:24:34Z</time>
      </trkpt>
      <trkpt lat="43.16021" lon="5.72031">
        <ele>116.45678710938</ele>
        <time>2011-03-06T12:24:43Z</time>
      </trkpt>
      <trkpt lat="43.1603" lon="5.7202">
        <ele>116.9375</ele>
        <time>2011-03-06T12:24:53Z</time>
      </trkpt>
      <trkpt lat="43.16045" lon="5.72013">
        <ele>116.45678710938</ele>
        <time>2011-03-06T12:25:02Z</time>
      </trkpt>
      <trkpt lat="43.16076" lon="5.71996">
        <ele>116.9375</ele>
        <time>2011-03-06T12:25:15Z</time>
      </trkpt>
      <trkpt lat="43.16114" lon="5.72028">
        <ele>116.45678710938</ele>
        <time>2011-03-06T12:25:29Z</time>
      </trkpt>
      <trkpt lat="43.16145" lon="5.72048">
        <ele>116.9375</ele>
        <time>2011-03-06T12:25:40Z</time>
      </trkpt>
      <trkpt lat="43.16189" lon="5.72086">
        <ele>116.9375</ele>
        <time>2011-03-06T12:25:55Z</time>
      </trkpt>
      <trkpt lat="43.16196" lon="5.72102">
        <ele>116.9375</ele>
        <time>2011-03-06T12:25:59Z</time>
      </trkpt>
      <trkpt lat="43.16202" lon="5.72126">
        <ele>115.01489257812</ele>
        <time>2011-03-06T12:26:04Z</time>
      </trkpt>
      <trkpt lat="43.16195" lon="5.72149">
        <ele>115.01489257812</ele>
        <time>2011-03-06T12:26:10Z</time>
      </trkpt>
      <trkpt lat="43.1619" lon="5.72156">
        <ele>115.01489257812</ele>
        <time>2011-03-06T12:26:15Z</time>
      </trkpt>
      <trkpt lat="43.16165" lon="5.72218">
        <ele>116.45678710938</ele>
        <time>2011-03-06T12:26:35Z</time>
      </trkpt>
      <trkpt lat="43.16165" lon="5.72224">
        <ele>116.45678710938</ele>
        <time>2011-03-06T12:26:37Z</time>
      </trkpt>
      <trkpt lat="43.1616" lon="5.72234">
        <ele>118.37939453125</ele>
        <time>2011-03-06T12:26:49Z</time>
      </trkpt>
      <trkpt lat="43.16153" lon="5.72249">
        <ele>119.82141113281</ele>
        <time>2011-03-06T12:27:03Z</time>
      </trkpt>
      <trkpt lat="43.16148" lon="5.72255">
        <ele>121.744140625</ele>
        <time>2011-03-06T12:27:15Z</time>
      </trkpt>
      <trkpt lat="43.16144" lon="5.72261">
        <ele>122.22473144531</ele>
        <time>2011-03-06T12:27:19Z</time>
      </trkpt>
      <trkpt lat="43.16144" lon="5.72271">
        <ele>122.70544433594</ele>
        <time>2011-03-06T12:27:23Z</time>
      </trkpt>
      <trkpt lat="43.16142" lon="5.72319">
        <ele>123.66674804688</ele>
        <time>2011-03-06T12:27:40Z</time>
      </trkpt>
      <trkpt lat="43.16143" lon="5.72336">
        <ele>124.62805175781</ele>
        <time>2011-03-06T12:27:46Z</time>
      </trkpt>
      <trkpt lat="43.16143" lon="5.72348">
        <ele>125.58935546875</ele>
        <time>2011-03-06T12:27:51Z</time>
      </trkpt>
      <trkpt lat="43.16142" lon="5.7236">
        <ele>126.55065917969</ele>
        <time>2011-03-06T12:27:55Z</time>
      </trkpt>
      <trkpt lat="43.1614" lon="5.72383">
        <ele>128.47338867188</ele>
        <time>2011-03-06T12:28:05Z</time>
      </trkpt>
      <trkpt lat="43.1614" lon="5.72384">
        <ele>128.47338867188</ele>
        <time>2011-03-06T12:28:06Z</time>
      </trkpt>
      <trkpt lat="43.16139" lon="5.72396">
        <ele>128.9541015625</ele>
        <time>2011-03-06T12:28:11Z</time>
      </trkpt>
      <trkpt lat="43.16139" lon="5.724">
        <ele>128.9541015625</ele>
        <time>2011-03-06T12:28:13Z</time>
      </trkpt>
      <trkpt lat="43.16135" lon="5.72413">
        <ele>129.91528320312</ele>
        <time>2011-03-06T12:28:18Z</time>
      </trkpt>
      <trkpt lat="43.16135" lon="5.72431">
        <ele>129.91528320312</ele>
        <time>2011-03-06T12:28:24Z</time>
      </trkpt>
      <trkpt lat="43.16131" lon="5.7245">
        <ele>130.39599609375</ele>
        <time>2011-03-06T12:28:31Z</time>
      </trkpt>
      <trkpt lat="43.16131" lon="5.72466">
        <ele>131.35729980469</ele>
        <time>2011-03-06T12:28:38Z</time>
      </trkpt>
      <trkpt lat="43.16127" lon="5.72479">
        <ele>131.837890625</ele>
        <time>2011-03-06T12:28:43Z</time>
      </trkpt>
      <trkpt lat="43.16118" lon="5.72494">
        <ele>132.79931640625</ele>
        <time>2011-03-06T12:28:50Z</time>
      </trkpt>
      <trkpt lat="43.16106" lon="5.72516">
        <ele>132.31860351562</ele>
        <time>2011-03-06T12:29:03Z</time>
      </trkpt>
      <trkpt lat="43.16104" lon="5.7252">
        <ele>132.31860351562</ele>
        <time>2011-03-06T12:29:06Z</time>
      </trkpt>
      <trkpt lat="43.16089" lon="5.72559">
        <ele>133.27990722656</ele>
        <time>2011-03-06T12:29:20Z</time>
      </trkpt>
      <trkpt lat="43.16067" lon="5.72583">
        <ele>133.27990722656</ele>
        <time>2011-03-06T12:29:27Z</time>
      </trkpt>
      <trkpt lat="43.16049" lon="5.72586">
        <ele>133.27990722656</ele>
        <time>2011-03-06T12:29:33Z</time>
      </trkpt>
      <trkpt lat="43.16007" lon="5.72588">
        <ele>133.27990722656</ele>
        <time>2011-03-06T12:29:46Z</time>
      </trkpt>
      <trkpt lat="43.16001" lon="5.72595">
        <ele>132.31860351562</ele>
        <time>2011-03-06T12:30:01Z</time>
      </trkpt>
      <trkpt lat="43.15999" lon="5.72596">
        <ele>129.43469238281</ele>
        <time>2011-03-06T12:34:45Z</time>
      </trkpt>
      <trkpt lat="43.16013" lon="5.72604">
        <ele>127.99255371094</ele>
        <time>2011-03-06T12:34:56Z</time>
      </trkpt>
      <trkpt lat="43.16032" lon="5.7262">
        <ele>124.14733886719</ele>
        <time>2011-03-06T12:35:02Z</time>
      </trkpt>
      <trkpt lat="43.16035" lon="5.72623">
        <ele>123.66674804688</ele>
        <time>2011-03-06T12:35:03Z</time>
      </trkpt>
      <trkpt lat="43.16048" lon="5.72632">
        <ele>121.26354980469</ele>
        <time>2011-03-06T12:35:08Z</time>
      </trkpt>
      <trkpt lat="43.16051" lon="5.72645">
        <ele>120.30212402344</ele>
        <time>2011-03-06T12:35:16Z</time>
      </trkpt>
      <trkpt lat="43.16043" lon="5.72707">
        <ele>119.82141113281</ele>
        <time>2011-03-06T12:35:28Z</time>
      </trkpt>
      <trkpt lat="43.16041" lon="5.72716">
        <ele>121.26354980469</ele>
        <time>2011-03-06T12:35:31Z</time>
      </trkpt>
      <trkpt lat="43.16041" lon="5.72725">
        <ele>122.22473144531</ele>
        <time>2011-03-06T12:35:35Z</time>
      </trkpt>
      <trkpt lat="43.16041" lon="5.7273">
        <ele>122.22473144531</ele>
        <time>2011-03-06T12:35:37Z</time>
      </trkpt>
      <trkpt lat="43.16031" lon="5.72759">
        <ele>121.744140625</ele>
        <time>2011-03-06T12:35:50Z</time>
      </trkpt>
      <trkpt lat="43.1602" lon="5.72768">
        <ele>119.82141113281</ele>
        <time>2011-03-06T12:35:54Z</time>
      </trkpt>
      <trkpt lat="43.16011" lon="5.72772">
        <ele>118.86010742188</ele>
        <time>2011-03-06T12:35:56Z</time>
      </trkpt>
      <trkpt lat="43.16003" lon="5.72791">
        <ele>119.3408203125</ele>
        <time>2011-03-06T12:36:04Z</time>
      </trkpt>
      <trkpt lat="43.16002" lon="5.72792">
        <ele>119.3408203125</ele>
        <time>2011-03-06T12:36:14Z</time>
      </trkpt>
      <trkpt lat="43.15983" lon="5.72814">
        <ele>117.89880371094</ele>
        <time>2011-03-06T12:36:24Z</time>
      </trkpt>
      <trkpt lat="43.15973" lon="5.72817">
        <ele>115.49560546875</ele>
        <time>2011-03-06T12:36:27Z</time>
      </trkpt>
      <trkpt lat="43.15957" lon="5.72823">
        <ele>112.61157226562</ele>
        <time>2011-03-06T12:36:30Z</time>
      </trkpt>
      <trkpt lat="43.15931" lon="5.72827">
        <ele>110.68884277344</ele>
        <time>2011-03-06T12:36:34Z</time>
      </trkpt>
      <trkpt lat="43.15895" lon="5.72815">
        <ele>110.20825195312</ele>
        <time>2011-03-06T12:36:43Z</time>
      </trkpt>
      <trkpt lat="43.15892" lon="5.72814">
        <ele>110.20825195312</ele>
        <time>2011-03-06T12:36:44Z</time>
      </trkpt>
      <trkpt lat="43.15886" lon="5.72827">
        <ele>110.20825195312</ele>
        <time>2011-03-06T12:36:49Z</time>
      </trkpt>
      <trkpt lat="43.15886" lon="5.72841">
        <ele>110.20825195312</ele>
        <time>2011-03-06T12:36:53Z</time>
      </trkpt>
      <trkpt lat="43.15879" lon="5.72848">
        <ele>110.20825195312</ele>
        <time>2011-03-06T12:36:57Z</time>
      </trkpt>
      <trkpt lat="43.15873" lon="5.72851">
        <ele>109.72766113281</ele>
        <time>2011-03-06T12:36:59Z</time>
      </trkpt>
      <trkpt lat="43.15832" lon="5.72899">
        <ele>108.76623535156</ele>
        <time>2011-03-06T12:37:14Z</time>
      </trkpt>
      <trkpt lat="43.15785" lon="5.72963">
        <ele>111.16955566406</ele>
        <time>2011-03-06T12:37:33Z</time>
      </trkpt>
      <trkpt lat="43.15767" lon="5.73016">
        <ele>113.09228515625</ele>
        <time>2011-03-06T12:37:49Z</time>
      </trkpt>
      <trkpt lat="43.15748" lon="5.73068">
        <ele>114.5341796875</ele>
        <time>2011-03-06T12:38:06Z</time>
      </trkpt>
      <trkpt lat="43.15723" lon="5.73107">
        <ele>113.09228515625</ele>
        <time>2011-03-06T12:38:16Z</time>
      </trkpt>
      <trkpt lat="43.15704" lon="5.73128">
        <ele>115.49560546875</ele>
        <time>2011-03-06T12:38:23Z</time>
      </trkpt>
      <trkpt lat="43.15702" lon="5.73129">
        <ele>115.49560546875</ele>
        <time>2011-03-06T12:38:24Z</time>
      </trkpt>
      <trkpt lat="43.15706" lon="5.73134">
        <ele>115.49560546875</ele>
        <time>2011-03-06T12:38:28Z</time>
      </trkpt>
      <trkpt lat="43.1572" lon="5.73157">
        <ele>115.01489257812</ele>
        <time>2011-03-06T12:38:37Z</time>
      </trkpt>
      <trkpt lat="43.15734" lon="5.73182">
        <ele>115.01489257812</ele>
        <time>2011-03-06T12:38:44Z</time>
      </trkpt>
      <trkpt lat="43.15733" lon="5.73193">
        <ele>115.97619628906</ele>
        <time>2011-03-06T12:38:48Z</time>
      </trkpt>
      <trkpt lat="43.15729" lon="5.73206">
        <ele>116.45678710938</ele>
        <time>2011-03-06T12:38:53Z</time>
      </trkpt>
      <trkpt lat="43.15727" lon="5.73227">
        <ele>116.45678710938</ele>
        <time>2011-03-06T12:38:59Z</time>
      </trkpt>
      <trkpt lat="43.15723" lon="5.73233">
        <ele>117.41821289062</ele>
        <time>2011-03-06T12:39:03Z</time>
      </trkpt>
      <trkpt lat="43.15715" lon="5.73284">
        <ele>118.86010742188</ele>
        <time>2011-03-06T12:39:18Z</time>
      </trkpt>
      <trkpt lat="43.15717" lon="5.73337">
        <ele>120.30212402344</ele>
        <time>2011-03-06T12:39:33Z</time>
      </trkpt>
      <trkpt lat="43.15717" lon="5.73343">
        <ele>120.30212402344</ele>
        <time>2011-03-06T12:39:35Z</time>
      </trkpt>
      <trkpt lat="43.15725" lon="5.73376">
        <ele>123.66674804688</ele>
        <time>2011-03-06T12:39:49Z</time>
      </trkpt>
      <trkpt lat="43.15746" lon="5.73396">
        <ele>125.10876464844</ele>
        <time>2011-03-06T12:40:05Z</time>
      </trkpt>
      <trkpt lat="43.15757" lon="5.73406">
        <ele>124.14733886719</ele>
        <time>2011-03-06T12:40:10Z</time>
      </trkpt>
      <trkpt lat="43.1576" lon="5.73411">
        <ele>125.10876464844</ele>
        <time>2011-03-06T12:40:19Z</time>
      </trkpt>
      <trkpt lat="43.15752" lon="5.73416">
        <ele>127.51196289062</ele>
        <time>2011-03-06T12:40:31Z</time>
      </trkpt>
      <trkpt lat="43.15741" lon="5.73425">
        <ele>130.87670898438</ele>
        <time>2011-03-06T12:40:46Z</time>
      </trkpt>
      <trkpt lat="43.1573" lon="5.73438">
        <ele>133.27990722656</ele>
        <time>2011-03-06T12:41:02Z</time>
      </trkpt>
      <trkpt lat="43.15726" lon="5.73441">
        <ele>133.76049804688</ele>
        <time>2011-03-06T12:41:12Z</time>
      </trkpt>
      <trkpt lat="43.15718" lon="5.73443">
        <ele>134.2412109375</ele>
        <time>2011-03-06T12:41:18Z</time>
      </trkpt>
      <trkpt lat="43.15718" lon="5.73449">
        <ele>134.72192382812</ele>
        <time>2011-03-06T12:41:22Z</time>
      </trkpt>
      <trkpt lat="43.15724" lon="5.73459">
        <ele>135.20251464844</ele>
        <time>2011-03-06T12:41:31Z</time>
      </trkpt>
      <trkpt lat="43.15728" lon="5.73468">
        <ele>135.20251464844</ele>
        <time>2011-03-06T12:41:37Z</time>
      </trkpt>
      <trkpt lat="43.15737" lon="5.73479">
        <ele>132.31860351562</ele>
        <time>2011-03-06T12:41:41Z</time>
      </trkpt>
      <trkpt lat="43.15741" lon="5.73499">
        <ele>128.9541015625</ele>
        <time>2011-03-06T12:41:44Z</time>
      </trkpt>
      <trkpt lat="43.1577" lon="5.73541">
        <ele>130.39599609375</ele>
        <time>2011-03-06T12:41:53Z</time>
      </trkpt>
      <trkpt lat="43.15791" lon="5.73556">
        <ele>133.27990722656</ele>
        <time>2011-03-06T12:42:04Z</time>
      </trkpt>
      <trkpt lat="43.15813" lon="5.73568">
        <ele>135.68310546875</ele>
        <time>2011-03-06T12:42:20Z</time>
      </trkpt>
      <trkpt lat="43.15842" lon="5.73586">
        <ele>137.60583496094</ele>
        <time>2011-03-06T12:42:35Z</time>
      </trkpt>
      <trkpt lat="43.15851" lon="5.73592">
        <ele>138.56726074219</ele>
        <time>2011-03-06T12:42:40Z</time>
      </trkpt>
      <trkpt lat="43.15855" lon="5.73586">
        <ele>138.56726074219</ele>
        <time>2011-03-06T12:42:44Z</time>
      </trkpt>
      <trkpt lat="43.15853" lon="5.73557">
        <ele>140.97045898438</ele>
        <time>2011-03-06T12:42:58Z</time>
      </trkpt>
      <trkpt lat="43.15859" lon="5.73552">
        <ele>142.89306640625</ele>
        <time>2011-03-06T12:43:04Z</time>
      </trkpt>
      <trkpt lat="43.15874" lon="5.7361">
        <ele>144.33520507812</ele>
        <time>2011-03-06T12:43:25Z</time>
      </trkpt>
      <trkpt lat="43.1589" lon="5.73692">
        <ele>147.21899414062</ele>
        <time>2011-03-06T12:43:50Z</time>
      </trkpt>
      <trkpt lat="43.15889" lon="5.73741">
        <ele>150.58361816406</ele>
        <time>2011-03-06T12:44:09Z</time>
      </trkpt>
      <trkpt lat="43.15869" lon="5.73795">
        <ele>153.46765136719</ele>
        <time>2011-03-06T12:44:34Z</time>
      </trkpt>
      <trkpt lat="43.15854" lon="5.73831">
        <ele>153.94836425781</ele>
        <time>2011-03-06T12:44:47Z</time>
      </trkpt>
      <trkpt lat="43.15858" lon="5.73837">
        <ele>154.42895507812</ele>
        <time>2011-03-06T12:44:51Z</time>
      </trkpt>
      <trkpt lat="43.15879" lon="5.73834">
        <ele>157.79357910156</ele>
        <time>2011-03-06T12:45:08Z</time>
      </trkpt>
      <trkpt lat="43.15887" lon="5.73828">
        <ele>159.71618652344</ele>
        <time>2011-03-06T12:45:16Z</time>
      </trkpt>
      <trkpt lat="43.15889" lon="5.73825">
        <ele>161.158203125</ele>
        <time>2011-03-06T12:45:37Z</time>
      </trkpt>
      <trkpt lat="43.1589" lon="5.73825">
        <ele>160.67749023438</ele>
        <time>2011-03-06T12:47:17Z</time>
      </trkpt>
    </trkseg>
  </trk>
</gpx>